U22122 / OE-LQI 7700 Squawk Report (21st of May, 2018)

Time Lat Lon Altitude Heading Speed Vertical Rate
2018-05-21 10:30:38 GMT 51.160664 -0.183315 0 326 1 0
2018-05-21 10:30:26 GMT 51.160606 -0.183242 0 323 4 0
2018-05-21 10:30:20 GMT 51.160469 -0.183093 0 323 10 0
2018-05-21 10:30:11 GMT 51.160095 -0.182667 0 340 14 0
2018-05-21 10:30:08 GMT 51.159931 -0.182573 0 351 15 0
2018-05-21 10:29:58 GMT 51.159096 -0.182314 0 348 22 0
2018-05-21 10:29:48 GMT 51.158081 -0.181961 0 348 21 0
2018-05-21 10:29:37 GMT 51.157116 -0.181664 0 5 20 0
2018-05-21 10:29:24 GMT 51.156063 -0.182444 0 33 20 0
2018-05-21 10:29:15 GMT 51.155434 -0.183056 0 14 18 0
2018-05-21 10:29:05 GMT 51.154541 -0.182982 0 348 24 0
2018-05-21 10:28:54 GMT 51.153473 -0.182610 0 345 23 0
2018-05-21 10:28:44 GMT 51.152458 -0.182258 0 348 22 0
2018-05-21 10:28:33 GMT 51.151459 -0.181980 0 8 20 0
2018-05-21 10:28:20 GMT 51.150414 -0.183144 0 50 23 0
2018-05-21 10:28:08 GMT 51.149689 -0.184504 0 47 23 0
2018-05-21 10:27:59 GMT 51.148979 -0.185642 0 64 23 0
2018-05-21 10:27:49 GMT 51.148499 -0.187955 0 75 54 0
2018-05-21 10:27:35 GMT 51.147320 -0.196399 0 75 125 0
2018-05-21 10:27:27 GMT 51.146294 -0.203705 100 77 129 -256
2018-05-21 10:27:22 GMT 51.145569 -0.209037 175 77 129 -640
2018-05-21 10:27:18 GMT 51.145157 -0.212006 225 77 128 -640
2018-05-21 10:27:13 GMT 51.144379 -0.217500 300 77 124 -576
2018-05-21 10:27:07 GMT 51.143780 -0.222015 325 77 123 -704
2018-05-21 10:27:01 GMT 51.142960 -0.227966 400 77 125 -704
2018-05-21 10:26:57 GMT 51.142475 -0.231400 450 77 125 -768
2018-05-21 10:26:50 GMT 51.141682 -0.237198 525 77 123 -640
2018-05-21 10:26:46 GMT 51.141216 -0.240555 575 77 123 -576
2018-05-21 10:26:40 GMT 51.140396 -0.246524 650 77 125 -704
2018-05-21 10:26:35 GMT 51.139801 -0.250459 700 77 124 -704
2018-05-21 10:26:28 GMT 51.138985 -0.256348 775 77 123 -576
2018-05-21 10:26:24 GMT 51.138474 -0.260035 800 77 125 -512
2018-05-21 10:26:19 GMT 51.137650 -0.265750 875 77 126 -768
2018-05-21 10:26:14 GMT 51.137169 -0.269241 925 77 126 -576
2018-05-21 10:26:07 GMT 51.136143 -0.276566 1,025 77 124 -704
2018-05-21 10:26:03 GMT 51.135818 -0.279083 1,150 77 127 -640
2018-05-21 10:25:59 GMT 51.135212 -0.283127 1,100 77 126 -704
2018-05-21 10:25:56 GMT 51.134811 -0.286090 1,150 77 126 -704
2018-05-21 10:25:53 GMT 51.134422 -0.288544 1,300 77 125 -640
2018-05-21 10:25:50 GMT 51.134094 -0.291061 1,250 77 125 -768
2018-05-21 10:25:46 GMT 51.133446 -0.295715 1,275 77 124 -448
2018-05-21 10:25:40 GMT 51.132706 -0.301233 1,350 77 125 -576
2018-05-21 10:25:35 GMT 51.132111 -0.305316 1,500 78 127 -640
2018-05-21 10:25:29 GMT 51.131561 -0.309621 1,425 78 130 -704
2018-05-21 10:25:25 GMT 51.131012 -0.313853 1,450 78 130 -704
2018-05-21 10:25:21 GMT 51.130508 -0.317713 1,525 78 137 -896
2018-05-21 10:25:17 GMT 51.130051 -0.321573 1,575 78 142 -960
2018-05-21 10:25:10 GMT 51.129089 -0.329070 1,675 77 151 -768
2018-05-21 10:25:06 GMT 51.128540 -0.332930 1,725 77 152 -960
2018-05-21 10:25:01 GMT 51.127533 -0.339982 1,800 76 157 -896
2018-05-21 10:24:58 GMT 51.127121 -0.342655 1,925 72 173 -384
2018-05-21 10:24:54 GMT 51.126480 -0.346812 1,900 75 161 -1024
2018-05-21 10:24:50 GMT 51.125252 -0.354004 1,975 73 170 -576
2018-05-21 10:24:47 GMT 51.124832 -0.356313 1,975 72 173 -384
2018-05-21 10:24:44 GMT 51.124374 -0.358615 2,000 72 173 -384
2018-05-21 10:24:40 GMT 51.123505 -0.363068 2,050 71 178 -320
2018-05-21 10:24:37 GMT 51.122643 -0.367279 2,050 42 181 -448
2018-05-21 10:24:33 GMT 51.121536 -0.372051 2,100 42 183 -576
2018-05-21 10:24:29 GMT 51.119759 -0.377884 2,100 58 180 -320
2018-05-21 10:24:26 GMT 51.118130 -0.381927 2,175 42 181 -448
2018-05-21 10:24:23 GMT 51.117245 -0.383682 2,125 48 181 -576
2018-05-21 10:24:20 GMT 51.114731 -0.387726 2,150 42 181 -512
2018-05-21 10:24:15 GMT 51.112335 -0.391202 2,275 42 185 -512
2018-05-21 10:24:12 GMT 51.109982 -0.394669 2,225 42 182 -384
2018-05-21 10:24:09 GMT 51.107979 -0.397644 2,250 42 183 -576
2018-05-21 10:24:05 GMT 51.106110 -0.400407 2,275 43 184 -512
2018-05-21 10:24:02 GMT 51.104645 -0.402560 2,325 43 184 -512
2018-05-21 10:23:57 GMT 51.101578 -0.407088 2,350 42 185 -512
2018-05-21 10:23:54 GMT 51.099426 -0.410280 2,375 42 184 -512
2018-05-21 10:23:51 GMT 51.096481 -0.414581 2,450 42 186 -448
2018-05-21 10:23:47 GMT 51.095039 -0.416718 2,475 42 185 -448
2018-05-21 10:23:44 GMT 51.093109 -0.419410 2,500 42 185 -448
2018-05-21 10:23:37 GMT 51.088100 -0.426636 2,500 41 187 -576
2018-05-21 10:23:34 GMT 51.086563 -0.428772 2,550 41 187 -576
2018-05-21 10:23:31 GMT 51.084473 -0.431747 2,550 40 188 -576
2018-05-21 10:23:28 GMT 51.081772 -0.435333 2,600 38 189 -576
2018-05-21 10:23:23 GMT 51.079304 -0.438538 2,650 34 191 -512
2018-05-21 10:23:20 GMT 51.077347 -0.440826 2,650 33 191 -512
2018-05-21 10:23:15 GMT 51.073334 -0.444946 2,700 24 193 -448
2018-05-21 10:23:12 GMT 51.071091 -0.446505 2,725 9 197 -448
2018-05-21 10:23:09 GMT 51.068344 -0.447990 2,750 9 197 -448
2018-05-21 10:23:05 GMT 51.062916 -0.448837 2,775 359 201 -512
2018-05-21 10:23:01 GMT 51.061150 -0.448761 2,800 354 202 -448
2018-05-21 10:22:56 GMT 51.054771 -0.447464 2,850 351 204 -384
2018-05-21 10:22:52 GMT 51.052368 -0.446876 2,875 351 204 -384
2018-05-21 10:22:49 GMT 51.050171 -0.446282 2,875 351 205 -384
2018-05-21 10:22:45 GMT 51.045788 -0.445099 2,925 349 206 -256
2018-05-21 10:22:41 GMT 51.042385 -0.444107 2,925 347 206 64
2018-05-21 10:22:37 GMT 51.038635 -0.442719 2,900 342 210 192
2018-05-21 10:22:31 GMT 51.031403 -0.438538 2,925 329 219 128
2018-05-21 10:22:27 GMT 51.028793 -0.436038 2,925 327 221 128
2018-05-21 10:22:24 GMT 51.027584 -0.434647 2,900 303 236 128
2018-05-21 10:22:21 GMT 51.024124 -0.429580 2,900 309 232 128
2018-05-21 10:22:18 GMT 51.022369 -0.426254 2,900 294 241 -128
2018-05-21 10:22:14 GMT 51.020695 -0.422211 2,900 291 243 -128
2018-05-21 10:22:08 GMT 51.016800 -0.408053 2,900 290 247 -128
2018-05-21 10:22:03 GMT 51.015884 -0.404044 2,925 289 250 -192
2018-05-21 10:21:59 GMT 51.013897 -0.394745 2,925 290 256 -64
2018-05-21 10:21:54 GMT 51.012177 -0.386734 2,925 290 270 64
2018-05-21 10:21:51 GMT 51.010620 -0.379845 2,925 290 265 64
2018-05-21 10:21:48 GMT 51.009380 -0.374298 2,925 290 270 64
2018-05-21 10:21:44 GMT 51.008266 -0.369110 2,925 290 279 0
2018-05-21 10:21:41 GMT 51.006916 -0.362930 2,925 289 287 0
2018-05-21 10:21:37 GMT 51.004944 -0.354086 2,925 289 293 0
2018-05-21 10:21:31 GMT 51.001740 -0.339166 2,925 289 320 -128
2018-05-21 10:21:26 GMT 50.998722 -0.325089 2,950 289 320 -128
2018-05-21 10:21:20 GMT 50.996429 -0.314372 3,025 289 338 -640
2018-05-21 10:21:17 GMT 50.995602 -0.310364 2,975 289 335 -640
2018-05-21 10:21:14 GMT 50.994095 -0.303386 3,000 289 343 -768
2018-05-21 10:21:11 GMT 50.992996 -0.298338 3,350 289 353 -1792
2018-05-21 10:21:07 GMT 50.990948 -0.288544 3,300 289 355 -1728
2018-05-21 10:21:04 GMT 50.989380 -0.281191 3,275 289 354 -1728
2018-05-21 10:21:01 GMT 50.987827 -0.273743 3,325 288 359 -2688
2018-05-21 10:20:58 GMT 50.986084 -0.265379 3,325 288 359 -2688
2018-05-21 10:20:55 GMT 50.984383 -0.256882 3,950 288 362 -2176
2018-05-21 10:20:52 GMT 50.982880 -0.249419 3,675 288 362 -2176
2018-05-21 10:20:49 GMT 50.981731 -0.243454 3,675 288 362 -2176
2018-05-21 10:20:44 GMT 50.978565 -0.227203 4,000 287 367 -1792
2018-05-21 10:20:41 GMT 50.977589 -0.222244 4,125 287 367 -1792
2018-05-21 10:20:37 GMT 50.975864 -0.213013 4,175 287 362 -2880
2018-05-21 10:20:33 GMT 50.973675 -0.201492 4,725 287 362 -2816
2018-05-21 10:20:29 GMT 50.971394 -0.189133 4,475 287 362 -2496
2018-05-21 10:20:25 GMT 50.970016 -0.181868 4,800 287 367 -3392
2018-05-21 10:20:22 GMT 50.968414 -0.173111 5,100 287 362 -2944
2018-05-21 10:20:17 GMT 50.965996 -0.159988 5,375 287 366 -3968
2018-05-21 10:20:14 GMT 50.964787 -0.153427 5,175 287 365 -3520
2018-05-21 10:20:11 GMT 50.963379 -0.145866 5,700 287 367 -3328
2018-05-21 10:20:08 GMT 50.962234 -0.139779 5,500 287 369 -2944
2018-05-21 10:20:05 GMT 50.960678 -0.131465 5,775 287 370 -2496
2018-05-21 10:20:02 GMT 50.959122 -0.123151 5,775 287 373 -1664
2018-05-21 10:19:59 GMT 50.957153 -0.112536 5,875 287 377 -1280
2018-05-21 10:19:55 GMT 50.955048 -0.101178 5,975 287 378 -1536
2018-05-21 10:19:51 GMT 50.953568 -0.093231 6,050 287 377 -1728
2018-05-21 10:19:48 GMT 50.951935 -0.084763 6,350 287 368 -3008
2018-05-21 10:19:44 GMT 50.950287 -0.075865 6,650 287 365 -2560
2018-05-21 10:19:41 GMT 50.948399 -0.065918 7,075 287 381 -64
2018-05-21 10:19:36 GMT 50.946533 -0.056119 6,775 287 365 -2304
2018-05-21 10:19:33 GMT 50.944061 -0.042980 6,725 287 367 -3520
2018-05-21 10:19:30 GMT 50.943371 -0.039215 6,775 287 366 -2752
2018-05-21 10:19:27 GMT 50.942020 -0.032043 6,925 287 367 -3584
2018-05-21 10:19:24 GMT 50.940483 -0.023804 7,125 287 366 -4160
2018-05-21 10:19:21 GMT 50.938950 -0.015564 7,475 287 368 -3264
2018-05-21 10:19:18 GMT 50.937832 -0.009613 7,600 287 368 -3264
2018-05-21 10:19:14 GMT 50.935223 0.004272 7,800 287 372 -1792
2018-05-21 10:19:11 GMT 50.934219 0.009799 7,875 287 376 -1024
2018-05-21 10:19:08 GMT 50.932758 0.017700 7,900 287 377 -896
2018-05-21 10:19:05 GMT 50.930710 0.028381 8,000 287 380 -128
2018-05-21 10:19:01 GMT 50.929230 0.036374 8,000 287 380 0
2018-05-21 10:18:58 GMT 50.927731 0.044327 8,000 287 381 -64
2018-05-21 10:18:54 GMT 50.925568 0.055748 8,000 287 381 -64
2018-05-21 10:18:51 GMT 50.923965 0.064285 8,000 287 380 0
2018-05-21 10:18:47 GMT 50.922237 0.073395 8,000 287 380 0
2018-05-21 10:18:44 GMT 50.920258 0.084031 8,000 287 380 0
2018-05-21 10:18:41 GMT 50.918793 0.091602 8,000 287 380 0
2018-05-21 10:18:37 GMT 50.916962 0.101327 8,000 287 381 0
2018-05-21 10:18:34 GMT 50.915817 0.107636 8,000 287 380 0
2018-05-21 10:18:31 GMT 50.913902 0.117798 8,000 287 381 0
2018-05-21 10:18:28 GMT 50.912369 0.126190 8,000 287 381 0
2018-05-21 10:18:25 GMT 50.911484 0.130920 8,000 287 381 0
2018-05-21 10:18:22 GMT 50.909775 0.140001 8,000 287 382 64
2018-05-21 10:18:19 GMT 50.907898 0.150299 8,000 287 381 64
2018-05-21 10:18:16 GMT 50.906296 0.158931 8,000 287 382 64
2018-05-21 10:18:13 GMT 50.905472 0.163459 8,000 287 382 64
2018-05-21 10:18:10 GMT 50.903229 0.175484 8,000 287 383 0
2018-05-21 10:18:07 GMT 50.902172 0.181198 8,000 287 382 0
2018-05-21 10:18:04 GMT 50.900894 0.188030 8,000 287 383 0
2018-05-21 10:18:01 GMT 50.898773 0.199585 8,000 287 382 0
2018-05-21 10:17:58 GMT 50.897655 0.205917 8,000 287 383 0
2018-05-21 10:17:55 GMT 50.896492 0.212173 8,000 286 383 0
2018-05-21 10:17:52 GMT 50.895035 0.220246 8,000 286 383 0
2018-05-21 10:17:48 GMT 50.892838 0.232346 8,000 286 384 0
2018-05-21 10:17:45 GMT 50.891838 0.238037 8,000 287 383 64
2018-05-21 10:17:41 GMT 50.888672 0.255729 8,000 286 383 0
2018-05-21 10:17:38 GMT 50.887527 0.262336 8,000 286 383 0
2018-05-21 10:17:33 GMT 50.885147 0.275475 8,000 287 382 64
2018-05-21 10:17:28 GMT 50.883362 0.285273 8,000 290 383 -448
2018-05-21 10:17:25 GMT 50.881641 0.294418 8,050 300 382 -1472
2018-05-21 10:17:21 GMT 50.879360 0.305099 8,000 292 383 -704
2018-05-21 10:17:17 GMT 50.875961 0.317612 8,100 297 383 -1152
2018-05-21 10:17:14 GMT 50.874706 0.321503 8,150 315 375 -2496
2018-05-21 10:17:11 GMT 50.870750 0.331726 8,225 307 380 -1920
2018-05-21 10:17:07 GMT 50.866421 0.340576 8,350 314 376 -2368
2018-05-21 10:17:04 GMT 50.864456 0.344139 8,525 317 374 -2560
2018-05-21 10:17:01 GMT 50.859016 0.352631 8,550 319 373 -2880
2018-05-21 10:16:58 GMT 50.856689 0.355835 8,850 322 370 -3392
2018-05-21 10:16:55 GMT 50.852455 0.361404 8,925 322 369 -3584
2018-05-21 10:16:52 GMT 50.847195 0.368118 9,025 322 368 -3776
2018-05-21 10:16:49 GMT 50.844543 0.371457 9,325 322 366 -4416
2018-05-21 10:16:46 GMT 50.840027 0.377121 9,450 322 366 -4480
2018-05-21 10:16:43 GMT 50.836029 0.382146 9,750 322 362 -5376
2018-05-21 10:16:40 GMT 50.833511 0.385264 10,075 322 362 -4864
2018-05-21 10:16:37 GMT 50.826324 0.394246 10,225 322 362 -4288
2018-05-21 10:16:34 GMT 50.824539 0.396473 10,500 322 363 -4032
2018-05-21 10:16:31 GMT 50.821777 0.400009 10,625 322 364 -3968
2018-05-21 10:16:28 GMT 50.815865 0.407410 10,875 322 366 -4032
2018-05-21 10:16:25 GMT 50.812744 0.411301 11,000 322 366 -4096
2018-05-21 10:16:21 GMT 50.807648 0.417703 11,350 322 368 -4032
2018-05-21 10:16:18 GMT 50.803940 0.422306 11,600 322 371 -3840
2018-05-21 10:16:15 GMT 50.799683 0.427724 11,675 322 371 -3840
2018-05-21 10:16:12 GMT 50.795662 0.432739 11,975 322 373 -4032
2018-05-21 10:16:09 GMT 50.792542 0.436707 12,075 322 373 -4032
2018-05-21 10:16:06 GMT 50.786728 0.443907 12,325 322 376 -4032
2018-05-21 10:16:03 GMT 50.784393 0.446854 12,425 322 376 -4096
2018-05-21 10:16:00 GMT 50.779461 0.452957 13,200 322 381 -4480
2018-05-21 10:15:57 GMT 50.774479 0.459213 12,900 322 379 -4288
2018-05-21 10:15:54 GMT 50.771591 0.462875 13,550 322 379 -4672
2018-05-21 10:15:49 GMT 50.765442 0.470556 13,600 322 381 -4480
2018-05-21 10:15:46 GMT 50.758095 0.479813 13,800 322 381 -4352
2018-05-21 10:15:42 GMT 50.752274 0.487137 14,025 322 383 -3968
2018-05-21 10:15:39 GMT 50.750473 0.489485 14,275 322 384 -3904
2018-05-21 10:15:36 GMT 50.746033 0.495053 14,375 322 386 -3776
2018-05-21 10:15:32 GMT 50.739845 0.502853 14,700 322 388 -3904
2018-05-21 10:15:29 GMT 50.735886 0.507889 14,850 322 389 -4160
2018-05-21 10:15:26 GMT 50.731697 0.513153 15,425 322 391 -4416
2018-05-21 10:15:21 GMT 50.725693 0.520782 15,375 322 391 -4480
2018-05-21 10:15:18 GMT 50.719360 0.528793 15,675 322 393 -4544
2018-05-21 10:15:15 GMT 50.717560 0.531055 15,800 322 393 -4544
2018-05-21 10:15:12 GMT 50.713028 0.536771 16,325 322 394 -4480
2018-05-21 10:15:08 GMT 50.706665 0.544862 16,500 322 395 -4416
2018-05-21 10:15:05 GMT 50.702370 0.550232 16,825 322 396 -4480
2018-05-21 10:15:02 GMT 50.697556 0.556368 16,825 322 396 -4480
2018-05-21 10:14:59 GMT 50.694809 0.559857 17,375 322 399 -4416
2018-05-21 10:14:56 GMT 50.688080 0.568390 17,375 322 398 -4416
2018-05-21 10:14:53 GMT 50.683887 0.573654 17,625 322 399 -4416
2018-05-21 10:14:50 GMT 50.680073 0.578461 17,750 322 399 -4416
2018-05-21 10:14:47 GMT 50.676956 0.582350 18,975 322 406 -4672
2018-05-21 10:14:44 GMT 50.672016 0.588531 18,150 322 402 -4608
2018-05-21 10:14:41 GMT 50.668293 0.593187 18,500 322 404 -4672
2018-05-21 10:14:38 GMT 50.663956 0.598610 18,650 322 405 -4736
2018-05-21 10:14:35 GMT 50.660240 0.603357 18,975 322 406 -4672
2018-05-21 10:14:31 GMT 50.652699 0.612785 19,300 322 407 -5056
2018-05-21 10:14:28 GMT 50.647346 0.619466 19,475 322 407 -5056
2018-05-21 10:14:24 GMT 50.643585 0.624197 20,275 322 408 -5440
2018-05-21 10:14:21 GMT 50.637661 0.631565 20,175 322 408 -5440
2018-05-21 10:14:18 GMT 50.634109 0.635978 20,150 322 407 -5568
2018-05-21 10:14:15 GMT 50.629990 0.641110 20,500 322 407 -5824
2018-05-21 10:14:12 GMT 50.625000 0.647377 20,975 322 405 -6208
2018-05-21 10:14:08 GMT 50.619324 0.654337 21,375 320 392 -3584
2018-05-21 10:14:05 GMT 50.613548 0.661555 21,525 322 402 -6336
2018-05-21 10:14:02 GMT 50.611221 0.664456 22,100 322 398 -6400
2018-05-21 10:13:59 GMT 50.607216 0.669424 22,425 322 398 -6336
2018-05-21 10:13:56 GMT 50.602936 0.674720 23,050 323 391 -5824
2018-05-21 10:13:53 GMT 50.597672 0.681152 23,975 322 387 -5376
2018-05-21 10:13:50 GMT 50.593735 0.686067 23,850 323 391 -5824
2018-05-21 10:13:47 GMT 50.588516 0.692428 23,450 323 391 -5824
2018-05-21 10:13:44 GMT 50.582729 0.699413 23,850 323 390 -5696
2018-05-21 10:13:40 GMT 50.578491 0.704643 24,175 322 388 -5568
2018-05-21 10:13:37 GMT 50.574257 0.709880 24,425 322 387 -5376
2018-05-21 10:13:34 GMT 50.571030 0.713967 25,075 320 386 -4736
2018-05-21 10:13:31 GMT 50.566544 0.719604 25,650 320 385 -4480
2018-05-21 10:13:28 GMT 50.563339 0.723797 25,100 320 386 -4736
2018-05-21 10:13:25 GMT 50.558708 0.729923 25,600 320 387 -3328
2018-05-21 10:13:21 GMT 50.552902 0.737746 25,875 320 389 -3264
2018-05-21 10:13:18 GMT 50.549652 0.742083 26,000 320 390 -3456
2018-05-21 10:13:15 GMT 50.544975 0.748332 26,575 320 393 -3648
2018-05-21 10:13:11 GMT 50.538208 0.757334 26,325 320 393 -3648
2018-05-21 10:13:08 GMT 50.534958 0.761671 26,425 320 393 -3648
2018-05-21 10:13:04 GMT 50.529659 0.768672 26,750 320 396 -3648
2018-05-21 10:13:01 GMT 50.524586 0.775427 27,075 321 396 -3648
2018-05-21 10:12:58 GMT 50.521545 0.779379 27,050 320 398 -3584
2018-05-21 10:12:55 GMT 50.516766 0.785671 27,525 320 399 -3584
2018-05-21 10:12:52 GMT 50.511181 0.793094 27,475 320 400 -3520
2018-05-21 10:12:49 GMT 50.509003 0.796003 27,550 320 400 -3520
2018-05-21 10:12:46 GMT 50.504471 0.801930 27,750 320 402 -3456
2018-05-21 10:12:43 GMT 50.500847 0.806753 28,175 320 403 -3520
2018-05-21 10:12:40 GMT 50.494141 0.815661 28,175 320 404 -3520
2018-05-21 10:12:37 GMT 50.491116 0.819743 29,150 320 406 -4288
2018-05-21 10:12:34 GMT 50.487160 0.825014 28,500 320 406 -4288
2018-05-21 10:12:31 GMT 50.482597 0.831101 28,950 320 407 -4416
2018-05-21 10:12:27 GMT 50.476776 0.838895 29,075 320 407 -4160
2018-05-21 10:12:24 GMT 50.471924 0.845441 29,250 320 407 -3840
2018-05-21 10:12:21 GMT 50.465607 0.853816 29,575 320 410 -3008
2018-05-21 10:12:18 GMT 50.463913 0.856066 29,625 320 413 -2688
2018-05-21 10:12:15 GMT 50.459599 0.861684 29,825 320 417 -2944
2018-05-21 10:12:12 GMT 50.453640 0.869553 30,000 320 420 -3968
2018-05-21 10:12:09 GMT 50.448257 0.876666 30,100 320 419 -3584
2018-05-21 10:12:06 GMT 50.446053 0.879574 30,200 320 420 -4224
2018-05-21 10:12:03 GMT 50.442608 0.884102 34,750 320 421 -4224
2018-05-21 10:12:00 GMT 50.438839 0.889150 34,750 320 425 -3200
2018-05-21 10:11:57 GMT 50.432228 0.897910 30,925 320 427 -3136
2018-05-21 10:11:54 GMT 50.428665 0.902614 31,125 320 422 -3776
2018-05-21 10:11:51 GMT 50.424175 0.908525 31,350 320 429 -3200
2018-05-21 10:11:48 GMT 50.418217 0.916393 31,850 320 429 -3200
2018-05-21 10:11:45 GMT 50.415207 0.920394 32,425 320 432 -3328
2018-05-21 10:11:42 GMT 50.410355 0.926827 31,800 320 436 -2816
2018-05-21 10:11:38 GMT 50.403503 0.935842 31,950 320 435 -3008
2018-05-21 10:11:35 GMT 50.400246 0.940073 32,175 321 442 -2432
2018-05-21 10:11:32 GMT 50.394939 0.947125 32,950 320 441 -3008
2018-05-21 10:11:29 GMT 50.388336 0.955811 32,775 320 446 -4480
2018-05-21 10:11:26 GMT 50.383392 0.962269 32,775 320 445 -4032
2018-05-21 10:11:21 GMT 50.377579 0.969905 32,850 320 446 -4480
2018-05-21 10:11:17 GMT 50.369289 0.980901 35,300 321 446 -1920
2018-05-21 10:11:13 GMT 50.366180 0.985011 33,750 321 443 -5952
2018-05-21 10:11:09 GMT 50.357742 0.995970 33,950 321 437 -6144
2018-05-21 10:11:06 GMT 50.353775 1.001201 34,350 320 436 -6208
2018-05-21 10:11:02 GMT 50.349224 1.007179 34,750 321 432 -5952
2018-05-21 10:10:59 GMT 50.342335 1.016235 35,500 321 432 -3456
2018-05-21 10:10:56 GMT 50.338051 1.021803 35,225 321 431 -5056
2018-05-21 10:10:53 GMT 50.333584 1.027593 35,450 321 431 -3904
2018-05-21 10:10:50 GMT 50.328598 1.034016 36,225 321 434 -3392
2018-05-21 10:10:47 GMT 50.325989 1.037485 35,750 321 434 -3392
2018-05-21 10:10:44 GMT 50.320362 1.044740 36,150 321 435 -3392
2018-05-21 10:10:41 GMT 50.315430 1.051199 36,100 321 435 -3328
2018-05-21 10:10:38 GMT 50.311470 1.056321 36,450 321 438 -2752
2018-05-21 10:10:35 GMT 50.306168 1.063216 36,650 321 441 -2432
2018-05-21 10:10:31 GMT 50.300858 1.070128 36,700 321 442 -2432
2018-05-21 10:10:28 GMT 50.294853 1.077996 36,750 320 442 -2432
2018-05-21 10:10:24 GMT 50.288475 1.086385 36,825 320 442 -2304
2018-05-21 10:10:21 GMT 50.286163 1.089381 37,150 321 444 -1920
2018-05-21 10:10:18 GMT 50.281174 1.095959 37,075 321 445 -1920
2018-05-21 10:10:15 GMT 50.274090 1.105165 37,225 321 446 -1920
2018-05-21 10:10:12 GMT 50.270050 1.110414 37,925 321 446 -1920
2018-05-21 10:10:09 GMT 50.266663 1.114751 37,350 321 448 0
2018-05-21 10:10:06 GMT 50.261192 1.121867 37,550 321 448 -1920
2018-05-21 10:10:03 GMT 50.256500 1.127978 37,525 321 448 -1856
2018-05-21 10:10:00 GMT 50.251743 1.134116 37,650 321 447 -1472
2018-05-21 10:09:57 GMT 50.247711 1.139398 37,700 321 447 -1472
2018-05-21 10:09:54 GMT 50.242294 1.146438 37,850 321 448 -640
2018-05-21 10:09:51 GMT 50.236862 1.153564 37,925 321 448 -896
2018-05-21 10:09:47 GMT 50.228420 1.164551 37,950 321 449 -192
2018-05-21 10:09:44 GMT 50.226372 1.167223 37,975 321 449 -64
2018-05-21 10:09:41 GMT 50.221996 1.172939 37,975 321 449 0
2018-05-21 10:09:38 GMT 50.216492 1.180091 37,975 321 449 0
2018-05-21 10:09:34 GMT 50.207474 1.191800 37,975 321 449 0
2018-05-21 10:09:31 GMT 50.205688 1.194113 37,975 321 449 0
2018-05-21 10:09:28 GMT 50.199188 1.202558 37,975 321 448 0
2018-05-21 10:09:23 GMT 50.192017 1.211837 37,975 321 449 0
2018-05-21 10:09:20 GMT 50.187973 1.217097 37,975 321 449 0
2018-05-21 10:09:17 GMT 50.182522 1.224159 37,975 321 449 0
2018-05-21 10:09:14 GMT 50.178452 1.229457 37,975 321 449 0
2018-05-21 10:09:11 GMT 50.174377 1.234733 37,975 321 449 0
2018-05-21 10:09:08 GMT 50.167603 1.243551 37,975 321 449 0
2018-05-21 10:09:04 GMT 50.163528 1.248878 37,975 321 448 0
2018-05-21 10:09:01 GMT 50.157166 1.257140 37,975 321 449 0
2018-05-21 10:08:58 GMT 50.153332 1.262092 37,975 321 448 -64
2018-05-21 10:08:55 GMT 50.148258 1.268698 37,975 321 448 -64
2018-05-21 10:08:52 GMT 50.142578 1.276047 38,000 321 448 -64
2018-05-21 10:08:49 GMT 50.136017 1.284510 38,000 321 448 0
2018-05-21 10:08:45 GMT 50.131073 1.290966 38,000 321 448 64
2018-05-21 10:08:42 GMT 50.125866 1.297723 38,000 321 448 64
2018-05-21 10:08:38 GMT 50.121140 1.303759 38,000 321 448 64
2018-05-21 10:08:35 GMT 50.115673 1.310862 38,000 321 448 64
2018-05-21 10:08:30 GMT 50.109898 1.318211 38,000 321 450 0
2018-05-21 10:08:27 GMT 50.103428 1.326599 37,975 321 448 0
2018-05-21 10:08:24 GMT 50.098663 1.332671 37,975 321 448 0
2018-05-21 10:08:21 GMT 50.092484 1.340621 37,975 321 448 0
2018-05-21 10:08:17 GMT 50.087460 1.347087 38,000 321 449 0
2018-05-21 10:08:12 GMT 50.080307 1.356306 38,000 321 449 -64
2018-05-21 10:08:09 GMT 50.073761 1.364690 38,000 321 449 0
2018-05-21 10:08:06 GMT 50.070053 1.369460 38,000 321 448 0
2018-05-21 10:08:03 GMT 50.066299 1.374303 38,000 321 449 0
2018-05-21 10:08:00 GMT 50.061485 1.380492 38,000 321 449 0
2018-05-21 10:07:57 GMT 50.054443 1.389481 38,000 321 449 -64
2018-05-21 10:07:54 GMT 50.050919 1.394035 38,000 321 449 -64
2018-05-21 10:07:50 GMT 50.044773 1.401945 38,000 321 450 -64
2018-05-21 10:07:46 GMT 50.037277 1.411526 38,000 321 450 -64
2018-05-21 10:07:42 GMT 50.028526 1.422804 38,000 321 450 0
2018-05-21 10:07:38 GMT 50.024986 1.427332 38,000 321 450 64
2018-05-21 10:07:34 GMT 50.019867 1.433864 38,000 321 450 0
2018-05-21 10:07:31 GMT 50.012745 1.443069 38,000 321 450 64
2018-05-21 10:07:27 GMT 50.009262 1.447521 38,000 321 450 64
2018-05-21 10:07:24 GMT 50.002808 1.455833 38,000 321 450 64
2018-05-21 10:07:21 GMT 49.999432 1.460217 38,000 321 450 64
2018-05-21 10:07:18 GMT 49.993927 1.467325 38,000 321 451 0
2018-05-21 10:07:15 GMT 49.989143 1.473356 38,000 321 451 0
2018-05-21 10:07:11 GMT 49.981567 1.483082 38,000 321 451 0
2018-05-21 10:07:08 GMT 49.978203 1.487386 38,000 321 451 0
2018-05-21 10:07:05 GMT 49.970989 1.496590 38,000 321 451 0
2018-05-21 10:07:01 GMT 49.965866 1.503197 38,000 321 451 -64
2018-05-21 10:06:58 GMT 49.960701 1.509804 38,000 321 451 -64
2018-05-21 10:06:54 GMT 49.954880 1.517227 38,025 321 451 0
2018-05-21 10:06:51 GMT 49.949062 1.524650 38,000 321 451 0
2018-05-21 10:06:48 GMT 49.943939 1.531182 38,025 321 451 0
2018-05-21 10:06:45 GMT 49.940868 1.535117 38,000 321 451 64
2018-05-21 10:06:42 GMT 49.934692 1.543001 38,000 321 451 64
2018-05-21 10:06:39 GMT 49.930580 1.548256 38,000 321 451 0
2018-05-21 10:06:36 GMT 49.926453 1.553481 38,000 321 453 -64
2018-05-21 10:06:33 GMT 49.922653 1.558324 38,000 321 451 0
2018-05-21 10:06:30 GMT 49.916107 1.566636 38,000 321 451 0
2018-05-21 10:06:27 GMT 49.910934 1.573141 38,000 321 451 0
2018-05-21 10:06:24 GMT 49.906837 1.578394 38,000 321 452 0
2018-05-21 10:06:21 GMT 49.901001 1.585717 38,000 321 452 0
2018-05-21 10:06:18 GMT 49.897842 1.589765 38,000 321 453 -64
2018-05-21 10:06:15 GMT 49.892303 1.596776 38,000 321 453 -64
2018-05-21 10:06:12 GMT 49.886444 1.604148 38,000 321 452 0
2018-05-21 10:06:09 GMT 49.882027 1.609794 38,000 321 453 -64
2018-05-21 10:06:06 GMT 49.877151 1.615930 38,000 321 453 -64
2018-05-21 10:06:02 GMT 49.869598 1.625543 38,000 321 452 128
2018-05-21 10:05:59 GMT 49.865112 1.631325 38,000 321 453 -64
2018-05-21 10:05:55 GMT 49.858612 1.639637 38,000 321 453 64
2018-05-21 10:05:51 GMT 49.854465 1.644906 38,000 321 453 0
2018-05-21 10:05:48 GMT 49.848999 1.651925 38,000 321 453 64
2018-05-21 10:05:45 GMT 49.844467 1.657707 38,000 321 453 64
2018-05-21 10:05:41 GMT 49.836639 1.667826 38,000 321 453 64
2018-05-21 10:05:38 GMT 49.831467 1.674403 37,975 321 454 0
2018-05-21 10:05:35 GMT 49.827667 1.679318 37,975 320 453 0
2018-05-21 10:05:31 GMT 49.820480 1.688642 37,975 321 454 0
2018-05-21 10:05:28 GMT 49.816086 1.694352 37,975 320 453 0
2018-05-21 10:05:25 GMT 49.812618 1.698872 37,975 320 453 0
2018-05-21 10:05:22 GMT 49.807495 1.705553 37,975 320 454 0
2018-05-21 10:05:19 GMT 49.800705 1.714373 37,975 320 453 0
2018-05-21 10:05:16 GMT 49.796219 1.720228 37,975 320 454 0
2018-05-21 10:05:13 GMT 49.792511 1.725143 37,975 320 454 0
2018-05-21 10:05:09 GMT 49.782730 1.737993 37,975 320 453 0
2018-05-21 10:05:04 GMT 49.777222 1.745308 37,975 320 453 64
2018-05-21 10:05:01 GMT 49.772507 1.751524 37,975 322 453 64
2018-05-21 10:04:58 GMT 49.768341 1.756945 37,975 320 453 64
2018-05-21 10:04:55 GMT 49.762947 1.764122 37,975 320 453 64
2018-05-21 10:04:52 GMT 49.758774 1.769594 37,975 320 454 0
2018-05-21 10:04:49 GMT 49.753693 1.776316 37,975 320 454 -64
2018-05-21 10:04:45 GMT 49.748653 1.782903 37,975 320 454 -64
2018-05-21 10:04:42 GMT 49.743534 1.789584 37,975 321 454 -64
2018-05-21 10:04:38 GMT 49.736343 1.798939 37,975 321 453 -64
2018-05-21 10:04:34 GMT 49.730125 1.806880 37,975 321 454 -64
2018-05-21 10:04:31 GMT 49.726311 1.811705 37,975 322 453 0
2018-05-21 10:04:28 GMT 49.720047 1.819466 38,000 323 453 64
2018-05-21 10:04:23 GMT 49.710892 1.830525 37,975 324 453 0
2018-05-21 10:04:20 GMT 49.708054 1.833849 37,975 324 453 0
2018-05-21 10:04:17 GMT 49.700565 1.842511 37,975 324 454 0
2018-05-21 10:04:13 GMT 49.694141 1.849786 38,000 324 455 0
2018-05-21 10:04:10 GMT 49.690418 1.854017 38,000 324 454 -64
2018-05-21 10:04:07 GMT 49.685349 1.859725 38,000 324 454 -64
2018-05-21 10:04:04 GMT 49.678967 1.866859 38,000 324 454 -64
2018-05-21 10:04:01 GMT 49.674911 1.871507 38,000 324 454 -64
2018-05-21 10:03:58 GMT 49.670242 1.876783 38,025 324 454 -64
2018-05-21 10:03:53 GMT 49.662277 1.885745 38,025 324 454 -64
2018-05-21 10:03:50 GMT 49.657272 1.891430 38,025 324 455 0
2018-05-21 10:03:47 GMT 49.652523 1.896775 38,025 324 455 0
2018-05-21 10:03:44 GMT 49.645340 1.904827 38,025 324 455 0
2018-05-21 10:03:41 GMT 49.639999 1.910879 38,025 324 455 0
2018-05-21 10:03:38 GMT 49.635956 1.915452 38,025 324 455 0
2018-05-21 10:03:35 GMT 49.630508 1.921596 38,025 324 456 0
2018-05-21 10:03:31 GMT 49.623985 1.928917 38,025 324 455 -64
2018-05-21 10:03:26 GMT 49.615311 1.938653 38,025 324 455 -64
2018-05-21 10:03:22 GMT 49.608486 1.946362 38,025 324 455 -64
2018-05-21 10:03:19 GMT 49.603691 1.951706 38,025 324 455 -64
2018-05-21 10:03:15 GMT 49.595406 1.961060 38,050 324 455 -64
2018-05-21 10:03:12 GMT 49.592144 1.964697 38,050 324 456 0
2018-05-21 10:03:09 GMT 49.587814 1.969596 38,050 324 455 0
2018-05-21 10:03:06 GMT 49.581619 1.976527 38,050 324 455 0
2018-05-21 10:03:03 GMT 49.577271 1.981442 38,050 324 456 0
2018-05-21 10:02:57 GMT 49.560974 1.999729 38,050 324 455 0
2018-05-21 10:02:54 GMT 49.558182 2.002909 38,050 324 455 0
2018-05-21 10:02:51 GMT 49.554810 2.006712 38,050 324 455 0
2018-05-21 10:02:47 GMT 49.549782 2.012354 38,050 324 456 0
2018-05-21 10:02:44 GMT 49.543312 2.019629 38,050 324 456 0
2018-05-21 10:02:41 GMT 49.538891 2.024602 38,050 324 455 64
2018-05-21 10:02:38 GMT 49.534142 2.029947 38,050 324 456 64
2018-05-21 10:02:35 GMT 49.529488 2.035292 38,050 324 456 64
2018-05-21 10:02:32 GMT 49.524399 2.041000 38,050 324 456 0
2018-05-21 10:02:29 GMT 49.520035 2.045981 38,050 324 456 0
2018-05-21 10:02:25 GMT 49.511375 2.055780 38,050 324 457 64
2018-05-21 10:02:22 GMT 49.503891 2.064201 38,050 324 456 0
2018-05-21 10:02:19 GMT 49.502014 2.066369 38,050 324 457 0
2018-05-21 10:02:16 GMT 49.496567 2.072513 38,050 324 456 0
2018-05-21 10:02:13 GMT 49.492538 2.076994 38,050 324 455 0
2018-05-21 10:02:10 GMT 49.486359 2.083933 38,050 324 455 0
2018-05-21 10:02:07 GMT 49.479492 2.091667 38,050 324 456 64
2018-05-21 10:02:04 GMT 49.475113 2.096533 38,025 324 456 64
2018-05-21 10:02:01 GMT 49.471855 2.100170 38,050 324 456 0
2018-05-21 10:01:58 GMT 49.466721 2.105906 38,050 324 456 64
2018-05-21 10:01:54 GMT 49.457657 2.116025 38,025 324 456 0
2018-05-21 10:01:51 GMT 49.452942 2.121301 38,025 324 456 0
2018-05-21 10:01:48 GMT 49.448578 2.126151 38,025 324 456 -64
2018-05-21 10:01:45 GMT 49.444576 2.130680 38,025 324 456 -64
2018-05-21 10:01:42 GMT 49.439438 2.136335 38,025 324 455 -64
2018-05-21 10:01:39 GMT 49.434425 2.141963 38,050 324 455 -64
2018-05-21 10:01:36 GMT 49.429630 2.147308 38,050 324 455 64
2018-05-21 10:01:32 GMT 49.422787 2.154983 38,050 324 455 0
2018-05-21 10:01:29 GMT 49.417694 2.160715 38,025 324 455 64
2018-05-21 10:01:26 GMT 49.411896 2.167198 38,050 324 455 64
2018-05-21 10:01:20 GMT 49.400711 2.179730 38,025 324 455 64
2018-05-21 10:01:16 GMT 49.394157 2.187002 38,025 324 455 64
2018-05-21 10:01:13 GMT 49.390156 2.191483 38,025 324 455 0
2018-05-21 10:01:09 GMT 49.383312 2.199145 38,025 324 455 0
2018-05-21 10:01:06 GMT 49.376377 2.206879 38,025 324 455 0
2018-05-21 10:01:03 GMT 49.373520 2.210013 38,025 324 455 0
2018-05-21 10:01:00 GMT 49.366608 2.217759 38,025 324 455 0
2018-05-21 10:00:57 GMT 49.363762 2.220901 38,025 324 453 64
2018-05-21 10:00:54 GMT 49.357571 2.227767 38,025 324 454 0
2018-05-21 10:00:51 GMT 49.352123 2.233839 38,025 324 454 0
2018-05-21 10:00:47 GMT 49.345325 2.241500 38,025 324 453 64
2018-05-21 10:00:44 GMT 49.338390 2.249162 38,025 324 453 128
2018-05-21 10:00:41 GMT 49.334480 2.253571 38,000 324 452 128
2018-05-21 10:00:38 GMT 49.331917 2.256462 38,000 324 452 128
2018-05-21 10:00:33 GMT 49.320786 2.268888 38,000 324 452 -64
2018-05-21 10:00:30 GMT 49.316788 2.273375 38,000 324 452 0
2018-05-21 10:00:27 GMT 49.312180 2.278579 38,000 324 452 0
2018-05-21 10:00:24 GMT 49.306412 2.285015 38,000 324 452 -64
2018-05-21 10:00:21 GMT 49.302475 2.289452 38,000 324 451 -64
2018-05-21 10:00:18 GMT 49.296726 2.295853 38,025 324 451 0
2018-05-21 10:00:15 GMT 49.292767 2.300335 38,025 324 451 0
2018-05-21 10:00:11 GMT 49.284897 2.309101 38,000 324 450 64
2018-05-21 10:00:08 GMT 49.279129 2.315585 38,000 324 450 64
2018-05-21 10:00:05 GMT 49.275558 2.319524 37,975 324 450 0
2018-05-21 10:00:01 GMT 49.268375 2.327584 38,000 324 450 0
2018-05-21 09:59:58 GMT 49.260227 2.336619 38,000 324 449 64
2018-05-21 09:59:54 GMT 49.254822 2.342694 38,000 324 449 64
2018-05-21 09:59:50 GMT 49.249058 2.349123 38,000 324 449 128
2018-05-21 09:59:46 GMT 49.242599 2.356286 37,975 325 448 64
2018-05-21 09:59:42 GMT 49.235508 2.364229 37,975 325 448 64
2018-05-21 09:59:39 GMT 49.230808 2.369361 37,975 325 448 64
2018-05-21 09:59:36 GMT 49.226196 2.374492 37,975 325 446 -64
2018-05-21 09:59:33 GMT 49.221588 2.379624 37,975 325 448 64
2018-05-21 09:59:29 GMT 49.214401 2.387554 37,975 325 446 -64
2018-05-21 09:59:26 GMT 49.209045 2.393470 37,975 325 446 -64
2018-05-21 09:59:23 GMT 49.204739 2.398200 37,975 325 445 0
2018-05-21 09:59:19 GMT 49.197987 2.405644 37,975 325 446 -64
2018-05-21 09:59:16 GMT 49.192566 2.411640 37,975 325 446 0
2018-05-21 09:59:13 GMT 49.187256 2.417485 37,975 325 446 0
2018-05-21 09:59:09 GMT 49.179878 2.425593 37,975 325 445 64
2018-05-21 09:59:06 GMT 49.175125 2.430796 37,975 325 445 64
2018-05-21 09:59:02 GMT 49.170197 2.436218 37,975 325 445 0
2018-05-21 09:58:58 GMT 49.163353 2.443663 37,975 325 445 0
2018-05-21 09:58:54 GMT 49.156952 2.450655 37,975 325 444 0
2018-05-21 09:58:51 GMT 49.151295 2.456890 37,975 325 443 -64
2018-05-21 09:58:45 GMT 49.137516 2.471852 37,975 325 443 -64
2018-05-21 09:58:42 GMT 49.134933 2.474741 37,975 325 444 -64
2018-05-21 09:58:38 GMT 49.129185 2.480959 37,975 325 443 0
2018-05-21 09:58:33 GMT 49.120014 2.491005 37,975 325 443 -64
2018-05-21 09:58:27 GMT 49.111816 2.499953 37,975 325 442 0
2018-05-21 09:58:23 GMT 49.104355 2.508052 37,975 325 442 0
2018-05-21 09:58:20 GMT 49.099155 2.513701 37,975 325 442 0
2018-05-21 09:58:17 GMT 49.095528 2.517676 37,975 325 442 0
2018-05-21 09:58:13 GMT 49.088078 2.525844 37,975 325 442 64
2018-05-21 09:58:10 GMT 49.083847 2.530447 37,975 325 441 64
2018-05-21 09:58:07 GMT 49.078163 2.536685 37,975 325 442 64
2018-05-21 09:58:04 GMT 49.072205 2.543263 37,975 325 442 64
2018-05-21 09:58:01 GMT 49.066898 2.549045 37,975 325 442 0
2018-05-21 09:57:57 GMT 49.060890 2.555622 37,975 325 441 0
2018-05-21 09:57:53 GMT 49.054840 2.562272 37,975 325 441 0
2018-05-21 09:57:49 GMT 49.046833 2.571018 37,975 325 441 0
2018-05-21 09:57:46 GMT 49.043621 2.574632 37,975 325 441 0
2018-05-21 09:57:43 GMT 49.037941 2.580847 37,975 325 441 0
2018-05-21 09:57:39 GMT 49.032635 2.586630 37,975 325 441 64
2018-05-21 09:57:36 GMT 49.026676 2.593135 37,950 325 441 64
2018-05-21 09:57:33 GMT 49.020672 2.599712 37,975 325 441 64
2018-05-21 09:57:29 GMT 49.014313 2.606718 37,975 325 440 64
2018-05-21 09:57:25 GMT 49.009003 2.612492 37,975 325 441 0
2018-05-21 09:57:22 GMT 49.003738 2.618267 37,975 325 441 0
2018-05-21 09:57:19 GMT 48.998093 2.624431 37,950 325 441 0
2018-05-21 09:57:15 GMT 48.992088 2.631009 37,975 325 440 0
2018-05-21 09:57:12 GMT 48.986481 2.637141 37,975 325 440 0
2018-05-21 09:57:08 GMT 48.978493 2.645826 37,975 325 440 -64
2018-05-21 09:57:05 GMT 48.975174 2.649466 37,975 325 440 -64
2018-05-21 09:57:02 GMT 48.967850 2.657424 37,975 325 440 -64
2018-05-21 09:56:58 GMT 48.963875 2.661799 37,975 325 440 0
2018-05-21 09:56:55 GMT 48.957916 2.668232 37,975 325 440 -64
2018-05-21 09:56:50 GMT 48.951599 2.675171 37,975 325 440 -64
2018-05-21 09:56:47 GMT 48.945908 2.681387 37,975 325 440 0
2018-05-21 09:56:44 GMT 48.941025 2.686721 37,975 325 440 0
2018-05-21 09:56:40 GMT 48.934982 2.693270 37,975 325 440 0
2018-05-21 09:56:36 GMT 48.925964 2.703130 37,975 325 440 -64
2018-05-21 09:56:33 GMT 48.923374 2.705889 37,975 325 440 -64
2018-05-21 09:56:30 GMT 48.918068 2.711672 37,975 325 440 -64
2018-05-21 09:56:26 GMT 48.909988 2.720595 38,000 325 440 -64
2018-05-21 09:56:23 GMT 48.906464 2.724398 38,000 325 440 -64
2018-05-21 09:56:18 GMT 48.897678 2.734006 38,000 325 440 -64
2018-05-21 09:56:14 GMT 48.891674 2.740583 38,000 325 440 -64
2018-05-21 09:56:10 GMT 48.883575 2.749469 38,000 325 440 -64
2018-05-21 09:56:05 GMT 48.877243 2.756412 38,000 325 441 0
2018-05-21 09:56:02 GMT 48.870541 2.763712 38,000 325 442 -64
2018-05-21 09:55:59 GMT 48.866676 2.767976 38,000 325 441 0
2018-05-21 09:55:53 GMT 48.856476 2.779118 38,000 325 441 0
2018-05-21 09:55:50 GMT 48.851852 2.784119 38,000 325 441 0
2018-05-21 09:55:47 GMT 48.845901 2.790668 38,000 325 441 0
2018-05-21 09:55:44 GMT 48.842010 2.794894 38,000 325 442 0
2018-05-21 09:55:41 GMT 48.834694 2.802887 38,000 325 442 0
2018-05-21 09:55:36 GMT 48.829285 2.808767 38,000 325 442 0
2018-05-21 09:55:32 GMT 48.819843 2.819005 38,000 325 442 0
2018-05-21 09:55:29 GMT 48.817245 2.821796 38,000 325 442 -64
2018-05-21 09:55:26 GMT 48.810860 2.828763 38,000 325 442 -128
2018-05-21 09:55:22 GMT 48.804482 2.835701 38,025 325 442 -64
2018-05-21 09:55:18 GMT 48.797081 2.843797 38,025 325 442 -128
2018-05-21 09:55:13 GMT 48.789917 2.851516 38,025 325 443 0
2018-05-21 09:55:10 GMT 48.786026 2.855741 38,025 325 443 0
2018-05-21 09:55:07 GMT 48.779621 2.862661 38,025 325 443 0
2018-05-21 09:55:02 GMT 48.770405 2.872563 38,025 325 443 0
2018-05-21 09:54:59 GMT 48.766159 2.877221 38,025 325 443 0
2018-05-21 09:54:55 GMT 48.760445 2.883405 38,025 325 443 0
2018-05-21 09:54:52 GMT 48.755493 2.888770 38,025 325 444 64
2018-05-21 09:54:49 GMT 48.750137 2.894475 38,025 325 444 64
2018-05-21 09:54:46 GMT 48.744827 2.900250 38,025 325 444 64
2018-05-21 09:54:43 GMT 48.740158 2.905320 38,025 325 444 64
2018-05-21 09:54:40 GMT 48.734802 2.911025 38,025 325 444 0
2018-05-21 09:54:37 GMT 48.729172 2.917081 38,025 325 444 0
2018-05-21 09:54:34 GMT 48.725922 2.920603 38,025 325 444 0
2018-05-21 09:54:30 GMT 48.717010 2.930169 38,025 325 444 0
2018-05-21 09:54:27 GMT 48.713055 2.934434 38,025 325 445 0
2018-05-21 09:54:24 GMT 48.709442 2.938279 38,000 325 445 0
2018-05-21 09:54:18 GMT 48.696625 2.952012 38,025 325 445 0
2018-05-21 09:54:15 GMT 48.692383 2.956623 38,025 325 445 64
2018-05-21 09:54:12 GMT 48.689163 2.960111 38,025 325 445 64
2018-05-21 09:54:09 GMT 48.683075 2.966661 38,000 325 445 64
2018-05-21 09:54:06 GMT 48.678047 2.972091 38,000 325 446 0
2018-05-21 09:54:03 GMT 48.673096 2.977365 38,000 325 445 64
2018-05-21 09:54:00 GMT 48.666962 2.983915 38,000 325 446 0
2018-05-21 09:53:56 GMT 48.660870 2.990450 38,000 325 446 0
2018-05-21 09:53:53 GMT 48.657284 2.994280 38,000 325 446 0
2018-05-21 09:53:49 GMT 48.648720 3.003460 38,000 325 446 0
2018-05-21 09:53:46 GMT 48.644394 3.008071 38,000 325 446 0
2018-05-21 09:53:43 GMT 48.639778 3.013073 38,000 325 446 0
2018-05-21 09:53:38 GMT 48.630753 3.022649 38,000 325 446 64
2018-05-21 09:53:35 GMT 48.626862 3.026804 38,000 325 446 0
2018-05-21 09:53:31 GMT 48.619354 3.034903 38,000 325 446 0
2018-05-21 09:53:28 GMT 48.612854 3.041875 38,000 325 446 0
2018-05-21 09:53:23 GMT 48.606033 3.049129 38,000 325 446 -64
2018-05-21 09:53:20 GMT 48.601093 3.054416 38,000 325 446 0
2018-05-21 09:53:15 GMT 48.592064 3.064029 38,000 325 446 -64
2018-05-21 09:53:12 GMT 48.587082 3.069411 38,000 325 445 -64
2018-05-21 09:53:05 GMT 48.574188 3.083183 38,000 325 446 -64
2018-05-21 09:53:02 GMT 48.567112 3.090772 38,000 325 446 -64
2018-05-21 09:52:58 GMT 48.564133 3.093952 38,025 325 445 0
2018-05-21 09:52:54 GMT 48.556274 3.102370 38,025 325 445 -64
2018-05-21 09:52:51 GMT 48.551983 3.106963 38,000 325 445 0
2018-05-21 09:52:47 GMT 48.545837 3.113540 38,025 325 445 0
2018-05-21 09:52:44 GMT 48.540485 3.119322 38,000 325 445 0
2018-05-21 09:52:40 GMT 48.533733 3.126622 38,025 325 445 64
2018-05-21 09:52:36 GMT 48.526566 3.134284 38,000 325 446 64
2018-05-21 09:52:32 GMT 48.519424 3.141949 38,000 325 445 -64
2018-05-21 09:52:29 GMT 48.514435 3.147231 38,000 325 445 -64
2018-05-21 09:52:25 GMT 48.508667 3.153428 38,025 325 445 0
2018-05-21 09:52:22 GMT 48.502266 3.160376 38,025 325 446 0
2018-05-21 09:52:18 GMT 48.496864 3.166159 38,025 325 446 0
2018-05-21 09:52:13 GMT 48.486969 3.176880 38,025 325 446 0
2018-05-21 09:52:08 GMT 48.478592 3.185894 38,025 325 446 64
2018-05-21 09:52:05 GMT 48.474705 3.190083 38,000 325 446 0
2018-05-21 09:52:00 GMT 48.467239 3.198148 38,000 325 446 0
2018-05-21 09:51:57 GMT 48.461105 3.204768 38,000 325 446 0
2018-05-21 09:51:53 GMT 48.454376 3.212022 38,000 325 446 -64
2018-05-21 09:51:50 GMT 48.448975 3.217797 38,000 325 446 -64
2018-05-21 09:51:47 GMT 48.445770 3.221248 38,025 325 446 -64
2018-05-21 09:51:44 GMT 48.440723 3.226656 38,000 325 446 -128
2018-05-21 09:51:41 GMT 48.435741 3.231932 38,025 325 446 -128
2018-05-21 09:51:38 GMT 48.430664 3.237305 38,025 325 446 -64
2018-05-21 09:51:34 GMT 48.423477 3.244981 38,025 325 446 -64
2018-05-21 09:51:31 GMT 48.419170 3.249568 38,025 325 446 0
2018-05-21 09:51:28 GMT 48.414139 3.254911 38,025 325 446 0
2018-05-21 09:51:24 GMT 48.406227 3.263301 38,025 325 446 64
2018-05-21 09:51:21 GMT 48.401230 3.268573 38,025 325 446 64
2018-05-21 09:51:18 GMT 48.396172 3.273926 38,025 325 446 0
2018-05-21 09:51:14 GMT 48.389694 3.280757 38,025 325 447 64
2018-05-21 09:51:11 GMT 48.385071 3.285616 38,025 325 446 64
2018-05-21 09:51:08 GMT 48.377087 3.294019 38,025 326 446 0
2018-05-21 09:51:05 GMT 48.372757 3.298575 38,025 326 446 0
2018-05-21 09:51:02 GMT 48.370285 3.301180 38,050 325 446 64
2018-05-21 09:50:59 GMT 48.365215 3.306523 38,025 326 446 0
2018-05-21 09:50:56 GMT 48.358017 3.314068 38,025 326 446 -64
2018-05-21 09:50:53 GMT 48.351994 3.320329 38,025 326 446 -64
2018-05-21 09:50:49 GMT 48.346436 3.326111 38,025 326 446 -64
2018-05-21 09:50:44 GMT 48.338425 3.334421 38,025 326 446 0
2018-05-21 09:50:40 GMT 48.332024 3.341145 38,050 326 446 0
2018-05-21 09:50:34 GMT 48.322586 3.350971 38,025 326 446 0
2018-05-21 09:50:30 GMT 48.313980 3.360056 38,025 325 447 64
2018-05-21 09:50:24 GMT 48.304977 3.369550 38,025 325 446 64
2018-05-21 09:50:19 GMT 48.296356 3.378648 38,025 325 446 64
2018-05-21 09:50:15 GMT 48.288033 3.387403 38,025 325 446 64
2018-05-21 09:50:12 GMT 48.285553 3.389986 38,025 325 446 64
2018-05-21 09:50:09 GMT 48.279095 3.396871 38,025 325 446 64
2018-05-21 09:50:06 GMT 48.275482 3.400762 38,025 325 446 64
2018-05-21 09:50:03 GMT 48.268387 3.408364 38,000 325 446 64
2018-05-21 09:49:58 GMT 48.261215 3.416025 38,025 325 446 64
2018-05-21 09:49:52 GMT 48.251541 3.426396 38,000 326 443 64
2018-05-21 09:49:49 GMT 48.244831 3.433517 38,000 325 446 128
2018-05-21 09:49:46 GMT 48.241882 3.436678 37,975 325 446 64
2018-05-21 09:49:41 GMT 48.232544 3.446608 38,000 326 443 64
2018-05-21 09:49:38 GMT 48.228256 3.451153 37,975 325 446 -64
2018-05-21 09:49:34 GMT 48.221786 3.458017 37,975 325 444 128
2018-05-21 09:49:29 GMT 48.212105 3.468210 38,000 325 445 -64
2018-05-21 09:49:26 GMT 48.208195 3.472330 38,000 325 444 128
2018-05-21 09:49:22 GMT 48.200607 3.480281 38,000 326 443 64
2018-05-21 09:49:19 GMT 48.194183 3.487032 38,000 325 444 64
2018-05-21 09:49:15 GMT 48.188782 3.492666 38,000 325 444 0
2018-05-21 09:49:10 GMT 48.179100 3.502832 38,000 325 444 64
2018-05-21 09:49:07 GMT 48.175838 3.506229 38,000 326 443 64
2018-05-21 09:49:04 GMT 48.170486 3.511867 38,000 325 444 0
2018-05-21 09:49:00 GMT 48.163597 3.519022 37,975 325 444 0
2018-05-21 09:48:57 GMT 48.159733 3.523090 38,000 326 443 64
2018-05-21 09:48:53 GMT 48.151447 3.531752 38,000 326 443 64
2018-05-21 09:48:48 GMT 48.142090 3.541541 38,000 326 443 0
2018-05-21 09:48:45 GMT 48.137203 3.546683 37,975 326 443 64
2018-05-21 09:48:42 GMT 48.133476 3.550556 37,975 326 443 64
2018-05-21 09:48:39 GMT 48.128124 3.556119 37,975 326 443 64
2018-05-21 09:48:34 GMT 48.119884 3.564711 37,975 326 443 0
2018-05-21 09:48:30 GMT 48.113434 3.571381 37,975 326 443 64
2018-05-21 09:48:26 GMT 48.106991 3.578092 37,975 326 443 0
2018-05-21 09:48:21 GMT 48.095863 3.589783 37,975 325 443 0
2018-05-21 09:48:18 GMT 48.091965 3.593834 37,975 325 443 0
2018-05-21 09:48:14 GMT 48.086926 3.599079 37,975 325 443 0
2018-05-21 09:48:09 GMT 48.078690 3.607773 37,975 325 442 0
2018-05-21 09:48:06 GMT 48.073334 3.613403 37,975 325 443 0
2018-05-21 09:48:02 GMT 48.067337 3.619789 37,975 325 443 0
2018-05-21 09:47:59 GMT 48.060562 3.627068 37,975 325 442 0
2018-05-21 09:47:56 GMT 48.056339 3.631615 37,975 325 442 0
2018-05-21 09:47:52 GMT 48.049637 3.638799 37,975 325 442 0
2018-05-21 09:47:48 GMT 48.042515 3.646405 37,975 325 442 0
2018-05-21 09:47:44 GMT 48.036118 3.653229 37,975 325 442 0
2018-05-21 09:47:39 GMT 48.028221 3.661264 37,975 332 442 -64
2018-05-21 09:47:35 GMT 48.021240 3.667992 37,975 330 442 0
2018-05-21 09:47:31 GMT 48.015610 3.673004 37,975 332 443 -64
2018-05-21 09:47:28 GMT 48.009155 3.678360 37,975 332 442 -64
2018-05-21 09:47:23 GMT 47.999874 3.685631 37,975 333 443 -64
2018-05-21 09:47:18 GMT 47.990982 3.692574 38,000 333 442 -64
2018-05-21 09:47:13 GMT 47.981277 3.700058 38,000 333 443 -64
2018-05-21 09:47:10 GMT 47.977020 3.703423 38,000 333 442 -64
2018-05-21 09:47:07 GMT 47.970474 3.708435 38,000 333 442 -64
2018-05-21 09:47:03 GMT 47.963516 3.713872 38,000 333 443 -64
2018-05-21 09:46:56 GMT 47.951797 3.722923 38,000 333 443 0
2018-05-21 09:46:53 GMT 47.944103 3.728943 38,000 333 443 0
2018-05-21 09:46:50 GMT 47.940285 3.731901 38,000 333 444 -64
2018-05-21 09:46:45 GMT 47.932159 3.738235 38,000 333 445 0
2018-05-21 09:46:41 GMT 47.923573 3.744859 38,000 333 443 -64
2018-05-21 09:46:36 GMT 47.913071 3.752930 38,025 333 444 64
2018-05-21 09:46:33 GMT 47.910027 3.755282 38,025 333 444 0
2018-05-21 09:46:29 GMT 47.901878 3.761620 38,025 333 445 64
2018-05-21 09:46:23 GMT 47.890244 3.770635 38,000 333 445 64
2018-05-21 09:46:20 GMT 47.885166 3.774578 38,000 333 444 64
2018-05-21 09:46:17 GMT 47.877457 3.780533 38,000 333 444 64
2018-05-21 09:46:12 GMT 47.871643 3.785065 38,000 333 445 0
2018-05-21 09:46:08 GMT 47.862305 3.792343 38,000 333 445 0
2018-05-21 09:46:05 GMT 47.856865 3.796621 38,000 333 445 0
2018-05-21 09:46:02 GMT 47.852581 3.799931 38,000 333 445 0
2018-05-21 09:45:56 GMT 47.840561 3.809303 38,000 333 445 0
2018-05-21 09:45:52 GMT 47.834702 3.813835 38,000 333 445 64
2018-05-21 09:45:49 GMT 47.828064 3.818985 38,000 333 445 64
2018-05-21 09:45:45 GMT 47.821903 3.823806 38,000 333 445 0
2018-05-21 09:45:39 GMT 47.809021 3.833679 38,000 333 445 0
2018-05-21 09:45:36 GMT 47.805889 3.836130 38,000 333 445 0
2018-05-21 09:45:30 GMT 47.794968 3.844460 38,000 333 445 -64
2018-05-21 09:45:26 GMT 47.786804 3.850778 38,000 333 447 0
2018-05-21 09:45:19 GMT 47.775421 3.859497 38,000 333 446 -64
2018-05-21 09:45:15 GMT 47.765717 3.866982 38,025 333 445 64
2018-05-21 09:45:08 GMT 47.754356 3.875779 38,000 333 445 0
2018-05-21 09:45:05 GMT 47.748535 3.880287 38,025 333 445 64
2018-05-21 09:45:01 GMT 47.739182 3.887540 38,025 333 445 64
2018-05-21 09:44:57 GMT 47.733810 3.891769 38,000 333 446 -64
2018-05-21 09:44:54 GMT 47.728287 3.895991 38,000 333 446 0
2018-05-21 09:44:49 GMT 47.718979 3.903236 38,000 333 446 -64
2018-05-21 09:44:44 GMT 47.709202 3.910781 38,000 333 447 -64
2018-05-21 09:44:36 GMT 47.695889 3.921063 38,025 333 447 0
2018-05-21 09:44:32 GMT 47.688110 3.927049 38,025 333 447 -64
2018-05-21 09:44:25 GMT 47.676380 3.936063 38,025 333 447 0
2018-05-21 09:44:22 GMT 47.668259 3.942307 38,025 333 447 0
2018-05-21 09:44:16 GMT 47.659149 3.949242 38,000 333 447 0
2018-05-21 09:44:12 GMT 47.651733 3.954941 38,000 333 447 0
2018-05-21 09:44:06 GMT 47.638092 3.965240 38,000 333 448 -128
2018-05-21 09:44:03 GMT 47.633598 3.968670 38,000 333 448 -128
2018-05-21 09:43:59 GMT 47.626987 3.973670 38,025 333 448 0
2018-05-21 09:43:53 GMT 47.616394 3.981720 38,025 333 447 0
2018-05-21 09:43:50 GMT 47.611675 3.985291 38,025 333 447 64
2018-05-21 09:43:41 GMT 47.593193 3.999305 38,025 333 448 0
2018-05-21 09:43:38 GMT 47.587326 4.003812 38,025 333 447 0
2018-05-21 09:43:33 GMT 47.579453 4.009872 38,025 333 447 -64
2018-05-21 09:43:29 GMT 47.571625 4.015915 38,025 333 447 -64
2018-05-21 09:43:26 GMT 47.565819 4.020362 38,025 333 447 0
2018-05-21 09:43:23 GMT 47.561489 4.023672 38,025 333 447 0
2018-05-21 09:43:19 GMT 47.553623 4.029729 38,025 333 448 64
2018-05-21 09:43:15 GMT 47.544640 4.036630 38,025 333 448 64
2018-05-21 09:43:10 GMT 47.534164 4.044659 38,025 333 448 64
2018-05-21 09:43:06 GMT 47.530472 4.047501 38,025 333 448 0
2018-05-21 09:43:01 GMT 47.520336 4.055293 38,025 333 449 -64
2018-05-21 09:42:58 GMT 47.515640 4.058899 38,025 333 449 -64
2018-05-21 09:42:54 GMT 47.504742 4.067336 38,025 333 449 -64
2018-05-21 09:42:51 GMT 47.501904 4.069519 38,000 333 448 64
2018-05-21 09:42:48 GMT 47.497192 4.073181 38,025 333 448 64
2018-05-21 09:42:45 GMT 47.491756 4.077336 38,025 333 448 64
2018-05-21 09:42:42 GMT 47.485428 4.082176 38,025 333 449 64
2018-05-21 09:42:36 GMT 47.474857 4.090294 38,000 333 449 64
2018-05-21 09:42:29 GMT 47.461945 4.100304 38,000 333 449 64
2018-05-21 09:42:24 GMT 47.452560 4.107513 38,000 333 449 64
2018-05-21 09:42:16 GMT 47.438080 4.118676 38,000 333 448 64
2018-05-21 09:42:12 GMT 47.432167 4.123183 38,000 333 448 0
2018-05-21 09:42:07 GMT 47.422764 4.130437 38,000 333 448 0
2018-05-21 09:42:03 GMT 47.412521 4.138254 38,000 333 448 0
2018-05-21 09:41:55 GMT 47.400421 4.147545 38,000 333 449 0
2018-05-21 09:41:52 GMT 47.394516 4.152077 38,000 333 448 64
2018-05-21 09:41:47 GMT 47.385151 4.159311 38,000 333 447 128
2018-05-21 09:41:44 GMT 47.380417 4.162926 38,000 333 447 64
2018-05-21 09:41:41 GMT 47.373734 4.168007 38,000 333 447 128
2018-05-21 09:41:37 GMT 47.365173 4.174599 37,975 333 447 64
2018-05-21 09:41:32 GMT 47.356155 4.181534 37,975 333 447 64
2018-05-21 09:41:29 GMT 47.352238 4.184523 37,975 333 448 64
2018-05-21 09:41:26 GMT 47.344162 4.190666 37,975 333 448 0
2018-05-21 09:41:21 GMT 47.337753 4.195541 37,975 333 448 -64
2018-05-21 09:41:18 GMT 47.331070 4.200623 37,975 333 448 -64
2018-05-21 09:41:13 GMT 47.322464 4.207146 37,975 333 448 0
2018-05-21 09:41:10 GMT 47.315090 4.212693 37,975 333 448 0
2018-05-21 09:41:02 GMT 47.301262 4.223116 38,000 333 446 0
2018-05-21 09:40:59 GMT 47.296509 4.226646 37,975 334 447 64
2018-05-21 09:40:55 GMT 47.288635 4.232483 37,950 334 447 -64
2018-05-21 09:40:51 GMT 47.281906 4.237427 37,950 334 447 0
2018-05-21 09:40:48 GMT 47.276451 4.241497 37,950 334 448 -64
2018-05-21 09:40:40 GMT 47.261459 4.252554 37,975 334 447 -64
2018-05-21 09:40:35 GMT 47.252010 4.259597 37,975 333 447 -64
2018-05-21 09:40:30 GMT 47.242630 4.266678 38,000 333 447 -64
2018-05-21 09:40:27 GMT 47.237549 4.270523 37,975 333 446 0
2018-05-21 09:40:20 GMT 47.225006 4.279999 37,975 333 447 0
2018-05-21 09:40:17 GMT 47.220310 4.283541 37,975 333 447 0
2018-05-21 09:40:10 GMT 47.205879 4.294527 37,975 333 446 -64
2018-05-21 09:40:07 GMT 47.201111 4.298126 37,975 333 446 -64
2018-05-21 09:40:02 GMT 47.191772 4.305232 37,975 333 446 0
2018-05-21 09:39:59 GMT 47.186279 4.309387 38,000 333 446 0
2018-05-21 09:39:56 GMT 47.180786 4.313542 38,000 333 446 0
2018-05-21 09:39:49 GMT 47.165863 4.324768 37,975 333 448 0
2018-05-21 09:39:45 GMT 47.161606 4.327979 37,975 334 447 0
2018-05-21 09:39:41 GMT 47.152542 4.334793 38,000 334 448 0
2018-05-21 09:39:38 GMT 47.147461 4.338570 38,000 334 447 0
2018-05-21 09:39:33 GMT 47.138004 4.345586 38,000 334 448 0
2018-05-21 09:39:27 GMT 47.127018 4.353755 38,000 334 447 0
2018-05-21 09:39:24 GMT 47.121506 4.357864 38,000 334 447 0
2018-05-21 09:39:20 GMT 47.114044 4.363426 38,000 333 448 0
2018-05-21 09:39:14 GMT 47.101410 4.372902 38,000 333 448 -64
2018-05-21 09:39:11 GMT 47.097504 4.375869 38,000 333 449 0
2018-05-21 09:39:06 GMT 47.088100 4.382982 38,000 333 449 -64
2018-05-21 09:39:02 GMT 47.079536 4.389461 38,000 333 449 0
2018-05-21 09:38:59 GMT 47.075867 4.392265 38,000 333 449 0
2018-05-21 09:38:54 GMT 47.066071 4.399681 38,000 333 449 0
2018-05-21 09:38:51 GMT 47.060543 4.403827 38,000 333 449 64
2018-05-21 09:38:45 GMT 47.049179 4.412384 38,000 333 449 0
2018-05-21 09:38:40 GMT 47.041260 4.418289 38,000 333 449 0
2018-05-21 09:38:36 GMT 47.033356 4.424180 38,000 333 449 0
2018-05-21 09:38:33 GMT 47.029072 4.427420 38,000 333 450 0
2018-05-21 09:38:28 GMT 47.018414 4.435378 38,000 333 450 0
2018-05-21 09:38:23 GMT 47.008915 4.442491 38,000 333 450 0
2018-05-21 09:38:19 GMT 47.002579 4.447197 38,000 333 450 0
2018-05-21 09:38:13 GMT 46.990341 4.456365 38,000 334 449 0
2018-05-21 09:38:08 GMT 46.982426 4.462210 38,000 333 450 0
2018-05-21 09:38:05 GMT 46.975021 4.467796 38,000 333 450 0
2018-05-21 09:38:02 GMT 46.970554 4.471083 38,000 333 450 0
2018-05-21 09:37:57 GMT 46.961525 4.477844 38,000 333 450 0
2018-05-21 09:37:54 GMT 46.955978 4.482010 38,000 333 451 0
2018-05-21 09:37:51 GMT 46.950851 4.485786 38,000 333 451 0
2018-05-21 09:37:47 GMT 46.943298 4.491486 38,000 333 451 -128
2018-05-21 09:37:44 GMT 46.936615 4.496429 38,000 333 451 -64
2018-05-21 09:37:40 GMT 46.929382 4.501785 38,000 333 451 -64
2018-05-21 09:37:36 GMT 46.923431 4.506248 38,025 333 451 -128
2018-05-21 09:37:33 GMT 46.914555 4.512846 38,025 333 451 -64
2018-05-21 09:37:30 GMT 46.910843 4.515656 38,025 333 451 -64
2018-05-21 09:37:25 GMT 46.902122 4.522142 38,025 333 451 -64
2018-05-21 09:37:21 GMT 46.894585 4.527776 38,025 333 451 -64
2018-05-21 09:37:18 GMT 46.889053 4.531860 38,025 333 451 -64
2018-05-21 09:37:13 GMT 46.879917 4.538621 38,025 334 452 0
2018-05-21 09:37:10 GMT 46.872757 4.543945 38,025 334 452 0
2018-05-21 09:37:06 GMT 46.865982 4.548943 38,025 334 452 0
2018-05-21 09:37:03 GMT 46.860508 4.553078 38,050 334 452 0
2018-05-21 09:36:57 GMT 46.850964 4.560150 38,050 333 452 0
2018-05-21 09:36:53 GMT 46.840256 4.568115 38,050 333 452 0
2018-05-21 09:36:47 GMT 46.831924 4.574332 38,050 333 452 -64
2018-05-21 09:36:44 GMT 46.825500 4.579102 38,050 333 452 0
2018-05-21 09:36:41 GMT 46.819542 4.583496 38,025 334 453 64
2018-05-21 09:36:37 GMT 46.812836 4.588509 38,050 333 451 0
2018-05-21 09:36:34 GMT 46.805695 4.593826 38,050 334 453 0
2018-05-21 09:36:30 GMT 46.800476 4.597644 38,050 334 453 0
2018-05-21 09:36:26 GMT 46.791733 4.604142 38,050 333 451 0
2018-05-21 09:36:21 GMT 46.783791 4.610001 38,050 334 453 64
2018-05-21 09:36:15 GMT 46.772663 4.618240 38,025 334 453 0
2018-05-21 09:36:11 GMT 46.763901 4.624708 38,025 334 453 0
2018-05-21 09:36:05 GMT 46.752319 4.633209 38,025 334 453 0
2018-05-21 09:36:00 GMT 46.743568 4.639664 38,025 334 453 0
2018-05-21 09:35:55 GMT 46.732765 4.647560 38,050 333 453 0
2018-05-21 09:35:49 GMT 46.722385 4.655251 38,025 334 453 -64
2018-05-21 09:35:44 GMT 46.712845 4.662323 38,025 334 453 64
2018-05-21 09:35:41 GMT 46.708885 4.665207 38,025 334 453 64
2018-05-21 09:35:38 GMT 46.703293 4.669323 38,025 334 453 64
2018-05-21 09:35:32 GMT 46.690887 4.678501 38,025 334 453 -64
2018-05-21 09:35:27 GMT 46.682957 4.684296 38,025 334 453 -64
2018-05-21 09:35:23 GMT 46.673740 4.691093 38,050 334 453 -64
2018-05-21 09:35:20 GMT 46.668617 4.694870 38,050 334 453 -64
2018-05-21 09:35:17 GMT 46.663010 4.699000 38,050 334 453 -64
2018-05-21 09:35:13 GMT 46.655457 4.704560 38,050 334 452 0
2018-05-21 09:35:10 GMT 46.649902 4.708672 38,050 334 452 0
2018-05-21 09:35:06 GMT 46.642365 4.714274 38,050 334 452 64
2018-05-21 09:35:03 GMT 46.636414 4.718628 38,050 334 452 64
2018-05-21 09:35:00 GMT 46.630074 4.723297 38,050 334 452 64
2018-05-21 09:34:54 GMT 46.619366 4.731194 38,025 334 452 128
2018-05-21 09:34:51 GMT 46.612564 4.736179 38,025 334 452 64
2018-05-21 09:34:48 GMT 46.609821 4.738266 38,025 334 452 64
2018-05-21 09:34:42 GMT 46.597458 4.747300 38,025 334 452 0
2018-05-21 09:34:39 GMT 46.591946 4.751381 38,025 333 451 0
2018-05-21 09:34:36 GMT 46.586498 4.755363 38,025 333 451 0
2018-05-21 09:34:32 GMT 46.580029 4.760170 38,025 334 452 0
2018-05-21 09:34:29 GMT 46.574070 4.764565 38,025 334 448 0
2018-05-21 09:34:26 GMT 46.569695 4.767792 38,025 334 450 64
2018-05-21 09:34:23 GMT 46.561363 4.773903 38,000 334 451 64
2018-05-21 09:34:20 GMT 46.555801 4.777981 38,000 334 450 64
2018-05-21 09:34:17 GMT 46.552231 4.780593 38,000 334 450 64
2018-05-21 09:34:12 GMT 46.541885 4.788096 38,000 334 450 64
2018-05-21 09:34:08 GMT 46.533989 4.793884 38,000 334 450 64
2018-05-21 09:34:05 GMT 46.527752 4.798416 37,975 334 448 0
2018-05-21 09:34:02 GMT 46.523300 4.801695 37,975 334 450 64
2018-05-21 09:33:59 GMT 46.517742 4.805763 37,975 334 449 64
2018-05-21 09:33:56 GMT 46.512249 4.809746 37,975 334 449 0
2018-05-21 09:33:51 GMT 46.503113 4.816366 37,975 334 449 64
2018-05-21 09:33:48 GMT 46.496002 4.821556 37,975 334 448 0
2018-05-21 09:33:45 GMT 46.492813 4.823869 37,975 334 449 0
2018-05-21 09:33:40 GMT 46.480595 4.832817 37,975 334 448 0
2018-05-21 09:33:37 GMT 46.477066 4.835458 37,950 334 448 0
2018-05-21 09:33:34 GMT 46.468094 4.841956 37,975 334 446 0
2018-05-21 09:33:29 GMT 46.462021 4.846413 37,975 334 447 0
2018-05-21 09:33:26 GMT 46.455082 4.851425 37,975 334 447 0
2018-05-21 09:33:22 GMT 46.449051 4.855890 37,975 334 447 0
2018-05-21 09:33:18 GMT 46.441589 4.861383 37,975 333 446 0
2018-05-21 09:33:15 GMT 46.436089 4.865433 37,975 334 446 0
2018-05-21 09:33:11 GMT 46.429367 4.870360 37,950 334 445 0
2018-05-21 09:33:06 GMT 46.419617 4.877528 37,975 334 446 64
2018-05-21 09:32:57 GMT 46.401596 4.890770 37,950 334 445 64
2018-05-21 09:32:54 GMT 46.396591 4.894409 37,950 334 445 0
2018-05-21 09:32:47 GMT 46.385532 4.902580 37,950 334 445 0
2018-05-21 09:32:44 GMT 46.380844 4.905998 37,950 334 444 0
2018-05-21 09:32:40 GMT 46.373428 4.911492 37,950 334 444 0
2018-05-21 09:32:37 GMT 46.365189 4.917454 37,975 334 444 0
2018-05-21 09:32:34 GMT 46.360489 4.920914 37,975 334 444 -64
2018-05-21 09:32:31 GMT 46.356953 4.923454 37,975 334 444 -64
2018-05-21 09:32:27 GMT 46.348389 4.929713 37,975 334 445 0
2018-05-21 09:32:23 GMT 46.341248 4.934871 37,950 334 444 0
2018-05-21 09:32:15 GMT 46.325249 4.946457 37,950 334 444 -64
2018-05-21 09:32:12 GMT 46.320557 4.949877 37,950 334 444 -64
2018-05-21 09:32:05 GMT 46.307281 4.959523 37,975 334 444 -64
2018-05-21 09:32:02 GMT 46.301788 4.963486 37,975 334 444 -64
2018-05-21 09:31:54 GMT 46.288422 4.973189 37,975 334 444 -64
2018-05-21 09:31:51 GMT 46.282188 4.977699 37,975 334 444 -64
2018-05-21 09:31:47 GMT 46.274788 4.983055 37,975 334 444 0
2018-05-21 09:31:43 GMT 46.268082 4.987862 37,975 334 444 0
2018-05-21 09:31:40 GMT 46.263054 4.991570 37,975 334 444 0
2018-05-21 09:31:33 GMT 46.248158 5.002350 37,975 334 444 0
2018-05-21 09:31:29 GMT 46.243084 5.005989 37,975 334 444 0
2018-05-21 09:31:24 GMT 46.233353 5.013048 37,975 334 445 -64
2018-05-21 09:31:21 GMT 46.225113 5.019010 37,975 334 445 -64
2018-05-21 09:31:15 GMT 46.214081 5.026982 37,975 334 444 0
2018-05-21 09:31:12 GMT 46.211754 5.028717 37,975 334 444 64
2018-05-21 09:31:09 GMT 46.206665 5.032408 37,975 334 444 64
2018-05-21 09:31:02 GMT 46.191147 5.043729 37,975 334 445 64
2018-05-21 09:30:59 GMT 46.186710 5.046913 37,975 334 445 0
2018-05-21 09:30:54 GMT 46.177322 5.053778 37,975 334 446 0
2018-05-21 09:30:51 GMT 46.173019 5.056993 37,975 334 445 0
2018-05-21 09:30:48 GMT 46.166786 5.061539 37,975 334 446 0
2018-05-21 09:30:42 GMT 46.153473 5.071220 37,975 334 446 -64
2018-05-21 09:30:38 GMT 46.147980 5.075282 37,975 334 446 -64
2018-05-21 09:30:35 GMT 46.142075 5.079569 37,975 334 446 0
2018-05-21 09:30:32 GMT 46.137726 5.082718 37,975 334 446 0
2018-05-21 09:30:29 GMT 46.131500 5.087288 37,975 334 446 0
2018-05-21 09:30:26 GMT 46.124050 5.092712 37,975 334 446 0
2018-05-21 09:30:23 GMT 46.122093 5.094154 37,975 334 445 64
2018-05-21 09:30:20 GMT 46.115391 5.099030 37,975 334 446 0
2018-05-21 09:30:17 GMT 46.106407 5.105553 37,975 334 446 0
2018-05-21 09:30:14 GMT 46.102867 5.108093 37,975 334 447 0
2018-05-21 09:30:11 GMT 46.098492 5.111252 37,975 334 447 0
2018-05-21 09:30:08 GMT 46.092957 5.115208 37,975 334 447 0
2018-05-21 09:30:03 GMT 46.082760 5.122513 37,975 334 447 0
2018-05-21 09:30:00 GMT 46.077209 5.126529 37,975 334 448 0
2018-05-21 09:29:57 GMT 46.072472 5.129929 37,975 334 447 0
2018-05-21 09:29:54 GMT 46.067780 5.133362 37,975 334 447 0
2018-05-21 09:29:50 GMT 46.059494 5.139324 37,975 334 447 0
2018-05-21 09:29:47 GMT 46.053944 5.143318 37,975 334 447 0
2018-05-21 09:29:42 GMT 46.043793 5.150645 37,975 334 448 0
2018-05-21 09:29:39 GMT 46.038162 5.154665 37,975 334 448 0
2018-05-21 09:29:36 GMT 46.034252 5.157532 37,975 334 448 0
2018-05-21 09:29:32 GMT 46.025528 5.163775 37,975 334 448 0
2018-05-21 09:29:28 GMT 46.019215 5.168312 37,975 334 448 -64
2018-05-21 09:29:25 GMT 46.014095 5.172020 37,975 334 448 0
2018-05-21 09:29:21 GMT 46.005760 5.177994 37,975 334 449 -64
2018-05-21 09:29:18 GMT 45.997520 5.183899 37,975 334 449 0
2018-05-21 09:29:15 GMT 45.995472 5.185410 37,975 334 449 0
2018-05-21 09:29:12 GMT 45.988358 5.190504 37,975 334 449 0
2018-05-21 09:29:09 GMT 45.983601 5.193924 37,975 334 449 0
2018-05-21 09:29:05 GMT 45.975643 5.199623 38,000 334 449 -64
2018-05-21 09:28:59 GMT 45.964096 5.207854 38,000 334 449 -64
2018-05-21 09:28:56 GMT 45.959766 5.210884 38,000 334 450 -64
2018-05-21 09:28:53 GMT 45.954987 5.214286 38,000 334 450 0
2018-05-21 09:28:50 GMT 45.949387 5.218231 38,000 334 450 0
2018-05-21 09:28:47 GMT 45.942684 5.222969 38,000 334 450 -64
2018-05-21 09:28:44 GMT 45.936264 5.227549 38,000 334 450 -64
2018-05-21 09:28:41 GMT 45.931915 5.230564 38,000 334 451 -64
2018-05-21 09:28:38 GMT 45.924088 5.236124 38,000 334 451 0
2018-05-21 09:28:33 GMT 45.916763 5.241282 38,000 334 451 0
2018-05-21 09:28:28 GMT 45.905163 5.249542 38,000 334 451 -64
2018-05-21 09:28:25 GMT 45.899994 5.253181 38,000 334 451 -64
2018-05-21 09:28:20 GMT 45.893196 5.257988 38,000 334 451 -64
2018-05-21 09:28:17 GMT 45.885635 5.263322 38,025 334 451 -64
2018-05-21 09:28:14 GMT 45.881653 5.266136 38,025 334 451 -64
2018-05-21 09:28:09 GMT 45.871597 5.273232 38,025 334 452 -64
2018-05-21 09:28:06 GMT 45.864212 5.278462 38,025 334 452 -64
2018-05-21 09:28:03 GMT 45.861649 5.280270 38,025 334 452 -64
2018-05-21 09:28:00 GMT 45.856384 5.283955 38,025 334 452 -64
2018-05-21 09:27:56 GMT 45.848461 5.289574 38,025 334 452 0
2018-05-21 09:27:53 GMT 45.842457 5.293831 38,025 334 453 0
2018-05-21 09:27:50 GMT 45.834915 5.299095 38,025 334 453 0
2018-05-21 09:27:46 GMT 45.827187 5.304474 38,025 334 453 64
2018-05-21 09:27:43 GMT 45.822372 5.307870 38,025 334 453 64
2018-05-21 09:27:39 GMT 45.816807 5.311752 38,025 334 453 64
2018-05-21 09:27:34 GMT 45.807541 5.318254 38,025 334 453 64
2018-05-21 09:27:29 GMT 45.797066 5.325554 38,025 334 453 64
2018-05-21 09:27:24 GMT 45.788269 5.331734 38,025 334 454 -64
2018-05-21 09:27:20 GMT 45.779480 5.337949 38,025 334 454 0
2018-05-21 09:27:17 GMT 45.775040 5.341097 38,025 334 454 -64
2018-05-21 09:27:14 GMT 45.768997 5.345385 38,025 334 453 0
2018-05-21 09:27:11 GMT 45.762619 5.349930 38,025 334 454 -64
2018-05-21 09:27:07 GMT 45.755402 5.355098 38,025 334 454 -64
2018-05-21 09:27:04 GMT 45.748581 5.359921 38,025 334 454 -64
2018-05-21 09:27:01 GMT 45.743408 5.363673 38,050 334 454 0
2018-05-21 09:26:56 GMT 45.735352 5.369367 38,050 334 454 0
2018-05-21 09:26:53 GMT 45.727100 5.375267 38,050 334 454 0
2018-05-21 09:26:50 GMT 45.724167 5.377396 38,050 334 454 0
2018-05-21 09:26:46 GMT 45.713882 5.384775 38,050 334 453 0
2018-05-21 09:26:43 GMT 45.710945 5.386871 38,050 334 453 0
2018-05-21 09:26:40 GMT 45.705322 5.390871 38,050 334 454 0
2018-05-21 09:26:36 GMT 45.698502 5.395761 38,050 334 454 0
2018-05-21 09:26:32 GMT 45.687286 5.403733 38,050 334 454 0
2018-05-21 09:26:29 GMT 45.684082 5.406010 38,050 334 454 0
2018-05-21 09:26:26 GMT 45.676025 5.411704 38,050 334 453 0
2018-05-21 09:26:22 GMT 45.667000 5.418045 38,050 334 453 64
2018-05-21 09:26:19 GMT 45.663208 5.420681 38,050 334 453 64
2018-05-21 09:26:15 GMT 45.657551 5.424637 38,025 334 454 0
2018-05-21 09:26:12 GMT 45.651901 5.428586 38,025 334 454 64
2018-05-21 09:26:09 GMT 45.646751 5.432259 38,025 334 454 0
2018-05-21 09:26:06 GMT 45.639954 5.436996 38,025 334 453 64
2018-05-21 09:26:03 GMT 45.634277 5.440912 38,025 334 453 64
2018-05-21 09:26:00 GMT 45.628639 5.444824 38,025 334 453 64
2018-05-21 09:25:57 GMT 45.621780 5.449621 38,025 334 453 64
2018-05-21 09:25:51 GMT 45.612209 5.456291 38,025 334 453 64
2018-05-21 09:25:48 GMT 45.605366 5.461098 38,025 334 453 64
2018-05-21 09:25:44 GMT 45.597313 5.466728 38,025 334 453 64
2018-05-21 09:25:41 GMT 45.593719 5.469249 38,000 334 452 128
2018-05-21 09:25:38 GMT 45.588547 5.472866 38,000 334 452 128
2018-05-21 09:25:35 GMT 45.580124 5.478761 38,000 334 452 128
2018-05-21 09:25:32 GMT 45.577713 5.480461 38,000 334 452 128
2018-05-21 09:25:29 GMT 45.570511 5.485527 38,000 334 452 0
2018-05-21 09:25:25 GMT 45.564121 5.490005 38,000 334 452 0
2018-05-21 09:25:22 GMT 45.555740 5.495911 38,000 334 452 0
2018-05-21 09:25:18 GMT 45.550140 5.499863 38,000 334 452 0
2018-05-21 09:25:15 GMT 45.545700 5.502973 38,000 334 451 0
2018-05-21 09:25:12 GMT 45.538563 5.508036 38,000 334 449 -64
2018-05-21 09:25:09 GMT 45.533020 5.511932 38,000 334 449 0
2018-05-21 09:25:06 GMT 45.526245 5.516706 38,000 334 449 -64
2018-05-21 09:25:01 GMT 45.516724 5.523376 38,000 334 448 -64
2018-05-21 09:24:58 GMT 45.513519 5.525654 38,000 334 448 -64
2018-05-21 09:24:55 GMT 45.507561 5.529807 38,000 334 448 -64
2018-05-21 09:24:50 GMT 45.497688 5.536707 38,000 334 448 0
2018-05-21 09:24:47 GMT 45.492966 5.540052 38,000 334 447 0
2018-05-21 09:24:44 GMT 45.486656 5.544478 38,000 334 447 0
2018-05-21 09:24:40 GMT 45.477905 5.550574 38,000 334 446 0
2018-05-21 09:24:34 GMT 45.468876 5.556938 38,000 334 446 -64
2018-05-21 09:24:31 GMT 45.462914 5.561092 38,000 334 446 -64
2018-05-21 09:24:28 GMT 45.457005 5.565178 38,025 334 446 -64
2018-05-21 09:24:24 GMT 45.450253 5.569934 38,025 334 446 0
2018-05-21 09:24:21 GMT 45.444340 5.574021 38,000 334 446 0
2018-05-21 09:24:18 GMT 45.437210 5.579027 38,025 334 446 0
2018-05-21 09:24:15 GMT 45.434464 5.580924 38,025 334 446 0
2018-05-21 09:24:12 GMT 45.427734 5.585632 38,000 334 447 0
2018-05-21 09:24:09 GMT 45.420647 5.590567 38,000 334 447 0
2018-05-21 09:24:05 GMT 45.414688 5.594654 38,000 335 447 0
2018-05-21 09:24:02 GMT 45.410751 5.597403 38,000 334 447 0
2018-05-21 09:23:59 GMT 45.404400 5.601822 38,000 334 448 0
2018-05-21 09:23:54 GMT 45.394855 5.608454 38,000 334 448 0
2018-05-21 09:23:51 GMT 45.390106 5.611736 38,000 334 448 64
2018-05-21 09:23:48 GMT 45.383404 5.616358 38,000 334 448 128
2018-05-21 09:23:45 GMT 45.376236 5.621316 38,000 335 449 64
2018-05-21 09:23:42 GMT 45.371841 5.624346 38,000 335 449 128
2018-05-21 09:23:39 GMT 45.367065 5.627680 37,975 335 449 64
2018-05-21 09:23:35 GMT 45.355659 5.635584 37,975 335 449 64
2018-05-21 09:23:32 GMT 45.353485 5.637033 37,975 335 449 128
2018-05-21 09:23:29 GMT 45.347534 5.641218 37,975 334 449 192
2018-05-21 09:23:26 GMT 45.341648 5.645298 37,975 334 449 320
2018-05-21 09:23:23 GMT 45.335587 5.649523 37,950 334 448 320
2018-05-21 09:23:19 GMT 45.329731 5.653605 37,950 334 448 384
2018-05-21 09:23:15 GMT 45.321396 5.659398 37,900 334 447 448
2018-05-21 09:23:11 GMT 45.311947 5.666065 37,875 334 446 512
2018-05-21 09:23:04 GMT 45.300819 5.673836 37,825 334 445 576
2018-05-21 09:23:01 GMT 45.295746 5.677386 37,800 334 445 640
2018-05-21 09:22:57 GMT 45.288620 5.682351 37,750 334 445 704
2018-05-21 09:22:54 GMT 45.283539 5.685883 37,700 334 445 576
2018-05-21 09:22:51 GMT 45.277172 5.690315 37,650 335 445 448
2018-05-21 09:22:48 GMT 45.272053 5.693799 37,650 335 445 448
2018-05-21 09:22:44 GMT 45.264496 5.699027 37,625 335 444 384
2018-05-21 09:22:41 GMT 45.259048 5.702754 37,575 335 443 256
2018-05-21 09:22:38 GMT 45.250809 5.708378 37,575 335 443 256
2018-05-21 09:22:33 GMT 45.244865 5.712422 37,550 335 443 320
2018-05-21 09:22:29 GMT 45.237762 5.717207 37,500 335 441 896
2018-05-21 09:22:26 GMT 45.229477 5.722765 37,475 335 441 1088
2018-05-21 09:22:22 GMT 45.225128 5.725643 37,350 335 442 1792
2018-05-21 09:22:18 GMT 45.216476 5.731397 37,250 336 444 2176
2018-05-21 09:22:15 GMT 45.210182 5.735533 37,200 336 445 2240
2018-05-21 09:22:12 GMT 45.205307 5.738722 37,025 336 447 1728
2018-05-21 09:22:09 GMT 45.199768 5.742318 37,000 336 447 1728
2018-05-21 09:22:06 GMT 45.190659 5.748269 36,750 336 450 1088
2018-05-21 09:22:02 GMT 45.185669 5.751474 36,800 336 450 1088
2018-05-21 09:21:58 GMT 45.176971 5.757163 36,750 336 450 768
2018-05-21 09:21:55 GMT 45.169556 5.762002 36,675 335 449 640
2018-05-21 09:21:52 GMT 45.166332 5.764071 36,650 335 449 704
2018-05-21 09:21:48 GMT 45.160767 5.767822 36,600 335 448 960
2018-05-21 09:21:45 GMT 45.154320 5.772110 36,350 334 449 1216
2018-05-21 09:21:42 GMT 45.147995 5.776454 36,500 334 449 1216
2018-05-21 09:21:38 GMT 45.141220 5.781228 36,425 333 449 1152
2018-05-21 09:21:35 GMT 45.134907 5.785776 36,350 333 449 1152
2018-05-21 09:21:31 GMT 45.128677 5.790449 36,100 332 448 1088
2018-05-21 09:21:26 GMT 45.118988 5.798035 36,100 330 447 512
2018-05-21 09:21:23 GMT 45.112106 5.803659 36,100 330 447 704
2018-05-21 09:21:20 GMT 45.108326 5.806877 36,100 330 447 640
2018-05-21 09:21:16 GMT 45.102310 5.811964 36,075 330 447 448
2018-05-21 09:21:13 GMT 45.094345 5.818699 36,025 329 448 128
2018-05-21 09:21:10 GMT 45.088669 5.823539 36,000 329 448 0
2018-05-21 09:21:06 GMT 45.081841 5.829319 36,000 329 448 64
2018-05-21 09:21:02 GMT 45.076160 5.834142 36,000 329 448 64
2018-05-21 09:20:59 GMT 45.070404 5.839037 36,000 329 449 128
2018-05-21 09:20:55 GMT 45.064728 5.843876 36,000 329 450 128
2018-05-21 09:20:51 GMT 45.054932 5.852296 35,975 329 451 128
2018-05-21 09:20:48 GMT 45.050694 5.855847 35,975 329 450 128
2018-05-21 09:20:44 GMT 45.044678 5.861075 35,950 329 451 192
2018-05-21 09:20:39 GMT 45.032585 5.871389 35,950 329 451 640
2018-05-21 09:20:34 GMT 45.025604 5.877351 35,925 329 451 832
2018-05-21 09:20:31 GMT 45.021461 5.880901 35,800 330 451 960
2018-05-21 09:20:28 GMT 45.014942 5.886394 35,825 330 451 1088
2018-05-21 09:20:24 GMT 45.009216 5.891217 35,775 330 451 1408
2018-05-21 09:20:20 GMT 45.001236 5.897958 35,675 330 451 1344
2018-05-21 09:20:14 GMT 44.991714 5.906001 35,500 330 452 1408
2018-05-21 09:20:11 GMT 44.984825 5.911850 35,450 330 452 1408
2018-05-21 09:20:08 GMT 44.980957 5.915091 35,425 330 452 1408
2018-05-21 09:20:04 GMT 44.973724 5.921238 35,275 330 453 1408
2018-05-21 09:20:01 GMT 44.966034 5.927713 35,175 330 453 1344
2018-05-21 09:19:58 GMT 44.963013 5.930263 35,175 330 453 1344
2018-05-21 09:19:52 GMT 44.951523 5.940007 34,800 329 453 1152
2018-05-21 09:19:48 GMT 44.945347 5.945211 34,750 329 453 960
2018-05-21 09:19:43 GMT 44.936554 5.952693 34,875 329 453 960
2018-05-21 09:19:40 GMT 44.929661 5.958542 34,800 329 453 960
2018-05-21 09:19:37 GMT 44.923462 5.963745 34,750 330 452 960
2018-05-21 09:19:34 GMT 44.918518 5.967930 34,700 330 452 960
2018-05-21 09:19:29 GMT 44.908943 5.975960 34,625 330 452 960
2018-05-21 09:19:26 GMT 44.906250 5.978263 34,600 329 451 960
2018-05-21 09:19:23 GMT 44.900146 5.983462 34,525 329 451 1024
2018-05-21 09:19:19 GMT 44.892929 5.989559 34,425 329 450 1088
2018-05-21 09:19:16 GMT 44.887901 5.993846 34,325 329 450 1152
2018-05-21 09:19:12 GMT 44.881439 5.999320 34,350 329 450 1216
2018-05-21 09:19:09 GMT 44.873844 6.005770 34,250 329 451 1344
2018-05-21 09:19:06 GMT 44.868073 6.010660 34,150 329 451 1472
2018-05-21 09:19:02 GMT 44.860668 6.017024 34,075 329 451 1472
2018-05-21 09:18:59 GMT 44.857086 6.020050 33,925 329 451 1472
2018-05-21 09:18:56 GMT 44.851826 6.024527 33,950 329 451 1472
2018-05-21 09:18:53 GMT 44.844517 6.030757 33,775 329 453 1408
2018-05-21 09:18:49 GMT 44.839233 6.035287 33,700 329 453 1408
2018-05-21 09:18:46 GMT 44.832458 6.041107 33,700 329 452 1024
2018-05-21 09:18:41 GMT 44.825848 6.046768 33,600 329 453 1344
2018-05-21 09:18:38 GMT 44.819378 6.052328 33,500 329 453 1344
2018-05-21 09:18:34 GMT 44.813278 6.057587 33,375 329 452 1024
2018-05-21 09:18:31 GMT 44.807556 6.062491 33,375 329 453 1216
2018-05-21 09:18:28 GMT 44.802200 6.067066 33,150 329 453 1088
2018-05-21 09:18:24 GMT 44.793819 6.074234 33,200 329 454 2176
2018-05-21 09:18:21 GMT 44.787506 6.079690 33,175 329 452 1024
2018-05-21 09:18:17 GMT 44.783207 6.083411 33,125 329 452 1088
2018-05-21 09:18:14 GMT 44.774597 6.090807 33,050 329 451 1216
2018-05-21 09:18:08 GMT 44.766541 6.097804 32,850 329 451 1536
2018-05-21 09:18:02 GMT 44.754810 6.107930 32,750 329 451 1792
2018-05-21 09:17:59 GMT 44.746902 6.114742 32,600 329 452 1984
2018-05-21 09:17:55 GMT 44.741501 6.119450 32,450 329 454 2176
2018-05-21 09:17:51 GMT 44.736603 6.123701 32,425 329 453 2176
2018-05-21 09:17:47 GMT 44.728973 6.130304 32,250 329 454 2176
2018-05-21 09:17:43 GMT 44.722092 6.136257 31,900 329 457 1792
2018-05-21 09:17:40 GMT 44.715179 6.142208 32,000 329 456 1856
2018-05-21 09:17:36 GMT 44.709095 6.147520 31,900 329 457 1792
2018-05-21 09:17:33 GMT 44.701859 6.153717 31,800 329 458 1728
2018-05-21 09:17:28 GMT 44.694077 6.160453 31,650 329 458 1344
2018-05-21 09:17:25 GMT 44.689041 6.164834 31,525 329 458 1024
2018-05-21 09:17:22 GMT 44.684830 6.168496 31,400 329 458 1024
2018-05-21 09:17:18 GMT 44.675949 6.176213 31,425 329 458 1024
2018-05-21 09:17:15 GMT 44.671692 6.179875 31,400 329 458 1024
2018-05-21 09:17:12 GMT 44.665237 6.185499 31,325 329 457 960
2018-05-21 09:17:06 GMT 44.654434 6.194785 31,150 329 455 832
2018-05-21 09:17:02 GMT 44.644669 6.203323 31,175 329 455 896
2018-05-21 09:16:59 GMT 44.641525 6.206098 31,125 328 454 1024
2018-05-21 09:16:55 GMT 44.636192 6.210759 31,075 328 453 1216
2018-05-21 09:16:51 GMT 44.628204 6.217739 30,975 328 452 1472
2018-05-21 09:16:45 GMT 44.615891 6.228594 30,825 328 452 1664
2018-05-21 09:16:41 GMT 44.608589 6.235009 30,700 328 453 1728
2018-05-21 09:16:32 GMT 44.594624 6.247335 30,400 328 454 1280
2018-05-21 09:16:29 GMT 44.588516 6.252725 30,375 328 454 1536
2018-05-21 09:16:22 GMT 44.574558 6.265222 30,200 328 453 1088
2018-05-21 09:16:18 GMT 44.567368 6.271624 30,125 328 452 704
2018-05-21 09:16:06 GMT 44.546494 6.290261 30,000 328 452 0
2018-05-21 09:15:53 GMT 44.526005 6.308363 29,975 328 452 256
2018-05-21 09:15:43 GMT 44.508270 6.324106 29,925 328 453 320
2018-05-21 09:15:40 GMT 44.501892 6.329800 29,850 328 452 896
2018-05-21 09:15:34 GMT 44.489834 6.340518 29,850 328 451 1024
2018-05-21 09:15:26 GMT 44.477825 6.351169 29,725 328 449 1088
2018-05-21 09:15:16 GMT 44.460297 6.366643 29,325 328 446 1344
2018-05-21 09:15:09 GMT 44.446655 6.378741 29,425 328 444 1600
2018-05-21 09:15:03 GMT 44.438370 6.386065 29,225 328 444 1600
2018-05-21 09:14:59 GMT 44.432014 6.391698 28,975 328 444 1600
2018-05-21 09:14:55 GMT 44.422009 6.400541 28,975 328 444 1408
2018-05-21 09:14:52 GMT 44.414246 6.407384 28,875 328 444 1344
2018-05-21 09:14:43 GMT 44.404270 6.416217 28,675 328 442 1344
2018-05-21 09:14:33 GMT 44.384354 6.433803 28,450 328 440 1280
2018-05-21 09:14:29 GMT 44.378815 6.438642 28,450 328 440 1280
2018-05-21 09:14:25 GMT 44.372196 6.444486 28,050 328 438 1792
2018-05-21 09:14:21 GMT 44.363068 6.452506 28,225 328 438 1472
2018-05-21 09:14:17 GMT 44.358353 6.456626 28,150 328 438 1536
2018-05-21 09:14:12 GMT 44.349152 6.464717 28,025 328 438 1792
2018-05-21 09:14:09 GMT 44.345524 6.467866 27,950 328 437 1728
2018-05-21 09:14:05 GMT 44.336105 6.476113 27,825 328 437 1792
2018-05-21 09:14:01 GMT 44.328690 6.482522 27,650 328 437 1856
2018-05-21 09:13:58 GMT 44.324062 6.486623 27,600 328 437 1856
2018-05-21 09:13:51 GMT 44.313675 6.495667 27,450 328 437 1728
2018-05-21 09:13:48 GMT 44.308559 6.500155 27,300 328 435 1472
2018-05-21 09:13:42 GMT 44.299110 6.508395 27,150 328 436 1536
2018-05-21 09:13:39 GMT 44.291473 6.515094 27,050 328 434 1280
2018-05-21 09:13:27 GMT 44.273643 6.530635 26,475 328 419 1536
2018-05-21 09:13:21 GMT 44.262146 6.540684 26,725 328 430 1472
2018-05-21 09:13:15 GMT 44.253845 6.547917 26,575 328 429 1472
2018-05-21 09:13:11 GMT 44.245239 6.555437 26,450 328 427 1472
2018-05-21 09:13:02 GMT 44.228210 6.570347 26,200 328 426 1600
2018-05-21 09:12:54 GMT 44.216759 6.580342 26,000 328 424 1664
2018-05-21 09:12:51 GMT 44.212196 6.584361 25,600 328 424 1664
2018-05-21 09:12:43 GMT 44.199440 6.595481 25,725 328 421 1408
2018-05-21 09:12:39 GMT 44.189026 6.604636 25,600 328 420 1472
2018-05-21 09:12:32 GMT 44.181240 6.611481 25,450 328 418 1472
2018-05-21 09:12:27 GMT 44.172134 6.619454 25,325 328 417 1408
2018-05-21 09:12:24 GMT 44.167236 6.623734 25,250 328 416 1536
2018-05-21 09:12:17 GMT 44.156113 6.633443 25,050 328 414 1728
2018-05-21 09:12:06 GMT 44.139954 6.647623 24,750 328 411 1792
2018-05-21 09:12:03 GMT 44.133057 6.653660 24,650 328 411 2048
2018-05-21 09:11:55 GMT 44.121048 6.664124 24,425 328 409 2176
2018-05-21 09:11:45 GMT 44.103928 6.679049 24,075 328 409 1984
2018-05-21 09:11:32 GMT 44.085110 6.695382 23,675 329 407 2176
2018-05-21 09:11:21 GMT 44.066803 6.711241 23,100 328 405 2176
2018-05-21 09:11:15 GMT 44.058296 6.718663 23,100 328 405 2176
2018-05-21 09:11:09 GMT 44.046204 6.729126 22,850 328 404 1920
2018-05-21 09:11:05 GMT 44.041397 6.733342 22,725 328 403 1600
2018-05-21 09:10:56 GMT 44.027897 6.745017 22,500 328 401 1792
2018-05-21 09:10:47 GMT 44.013199 6.757742 22,175 328 397 1856
2018-05-21 09:10:44 GMT 44.009216 6.761191 22,125 328 397 1856
2018-05-21 09:10:33 GMT 43.990932 6.777060 21,775 328 394 2112
2018-05-21 09:10:20 GMT 43.971195 6.794128 21,325 328 391 2240
2018-05-21 09:10:10 GMT 43.956207 6.807116 20,950 329 389 2304
2018-05-21 09:09:58 GMT 43.938332 6.822575 20,500 328 388 2304
2018-05-21 09:09:53 GMT 43.929565 6.830175 20,275 328 387 2176
2018-05-21 09:09:48 GMT 43.922104 6.836690 20,100 328 385 2240
2018-05-21 09:09:42 GMT 43.911888 6.845529 19,900 328 384 2432
2018-05-21 09:09:37 GMT 43.905697 6.850891 19,675 328 383 2560
2018-05-21 09:09:33 GMT 43.898666 6.857002 19,500 328 383 2560
2018-05-21 09:09:24 GMT 43.886765 6.867349 19,150 329 383 2496
2018-05-21 09:09:13 GMT 43.870781 6.881104 18,725 328 380 2304
2018-05-21 09:09:10 GMT 43.866302 6.884979 18,625 329 380 2368
2018-05-21 09:09:02 GMT 43.852661 6.896731 18,250 329 378 2560
2018-05-21 09:08:52 GMT 43.837498 6.909812 17,825 328 377 2432
2018-05-21 09:08:43 GMT 43.825115 6.920471 17,475 329 374 2112
2018-05-21 09:08:39 GMT 43.819202 6.925572 17,350 329 373 1664
2018-05-21 09:08:32 GMT 43.809288 6.934139 17,175 328 367 1024
2018-05-21 09:08:29 GMT 43.803795 6.938847 17,150 328 365 960
2018-05-21 09:08:19 GMT 43.790680 6.950194 16,975 329 354 1088
2018-05-21 09:08:07 GMT 43.773952 6.964613 16,750 328 342 1152
2018-05-21 09:07:57 GMT 43.761475 6.975360 16,575 328 331 1280
2018-05-21 09:07:54 GMT 43.757568 6.978738 16,525 328 330 1280
2018-05-21 09:07:46 GMT 43.747421 6.987560 16,350 328 323 1216
2018-05-21 09:07:43 GMT 43.742577 6.991752 16,300 328 319 1152
2018-05-21 09:07:37 GMT 43.730705 7.001953 16,100 328 309 1152
2018-05-21 09:07:32 GMT 43.729156 7.003337 16,075 329 307 1152
2018-05-21 09:07:27 GMT 43.723026 7.008623 15,975 329 301 1152
2018-05-21 09:07:21 GMT 43.716248 7.014387 15,875 329 295 1216
2018-05-21 09:07:16 GMT 43.710548 7.019217 15,775 329 290 1344
2018-05-21 09:07:10 GMT 43.703796 7.024926 15,625 329 284 1792
2018-05-21 09:07:06 GMT 43.699192 7.028765 15,500 330 281 1920
2018-05-21 09:06:58 GMT 43.690430 7.035913 15,200 330 278 2368
2018-05-21 09:06:55 GMT 43.687363 7.038404 15,100 330 276 2944
2018-05-21 09:06:50 GMT 43.681686 7.042939 13,575 330 276 3136
2018-05-21 09:06:43 GMT 43.672470 7.050280 14,450 330 277 3008
2018-05-21 09:06:37 GMT 43.665939 7.055522 14,175 330 276 2816
2018-05-21 09:06:34 GMT 43.663254 7.057670 14,025 330 276 2944
2018-05-21 09:06:27 GMT 43.655502 7.064017 13,700 329 276 2880
2018-05-21 09:06:23 GMT 43.651566 7.067339 13,525 329 275 2880
2018-05-21 09:06:17 GMT 43.644863 7.073168 13,225 327 274 2624
2018-05-21 09:06:13 GMT 43.640350 7.077288 13,050 326 273 2752
2018-05-21 09:06:06 GMT 43.633694 7.083631 12,425 324 272 2624
2018-05-21 09:06:03 GMT 43.629177 7.088143 12,550 324 271 2624
2018-05-21 09:05:55 GMT 43.622799 7.094814 12,250 315 265 3136
2018-05-21 09:05:52 GMT 43.619122 7.098541 12,100 325 268 2816
2018-05-21 09:05:44 GMT 43.610550 7.107005 11,675 325 266 3392
2018-05-21 09:05:41 GMT 43.607063 7.110378 11,500 322 266 3008
2018-05-21 09:05:36 GMT 43.604408 7.113255 11,350 318 266 2944
2018-05-21 09:05:30 GMT 43.598869 7.120972 11,025 310 266 3008
2018-05-21 09:05:26 GMT 43.595333 7.127773 10,775 300 267 3072
2018-05-21 09:05:20 GMT 43.591797 7.137517 10,450 290 266 2816
2018-05-21 09:05:15 GMT 43.590042 7.145457 10,225 282 265 3008
2018-05-21 09:05:11 GMT 43.589264 7.150758 9,925 276 265 3392
2018-05-21 09:05:08 GMT 43.588631 7.157200 9,925 276 265 3392
2018-05-21 09:05:01 GMT 43.587978 7.169625 9,475 275 264 4288
2018-05-21 09:04:58 GMT 43.587837 7.171914 9,300 275 265 3968
2018-05-21 09:04:50 GMT 43.586929 7.186783 8,700 276 270 4672
2018-05-21 09:04:41 GMT 43.585693 7.204093 7,900 276 278 4864
2018-05-21 09:04:36 GMT 43.585278 7.209778 7,625 276 281 4864
2018-05-21 09:04:30 GMT 43.584301 7.225342 7,025 275 287 4480
2018-05-21 09:04:25 GMT 43.584045 7.231367 6,725 273 290 3840
2018-05-21 09:04:18 GMT 43.583771 7.243120 6,325 270 290 3840
2018-05-21 09:04:13 GMT 43.583973 7.254835 5,975 266 289 3904
2018-05-21 09:04:06 GMT 43.584686 7.264390 5,600 262 290 3776
2018-05-21 09:04:01 GMT 43.586563 7.276718 5,200 253 289 3520
2018-05-21 09:03:55 GMT 43.590591 7.288790 4,775 236 286 3328
2018-05-21 09:03:49 GMT 43.593384 7.294219 4,575 229 284 3136
2018-05-21 09:03:42 GMT 43.600616 7.303098 4,225 209 275 2496
2018-05-21 09:03:38 GMT 43.604691 7.306228 4,075 202 271 2176
2018-05-21 09:03:31 GMT 43.613022 7.309636 3,825 185 256 1728
2018-05-21 09:03:26 GMT 43.618561 7.309963 3,700 168 241 1856
2018-05-21 09:03:20 GMT 43.625359 7.308262 3,500 159 233 2048
2018-05-21 09:03:13 GMT 43.633072 7.303289 3,225 144 217 2176
2018-05-21 09:03:09 GMT 43.635834 7.300480 3,100 140 212 2304
2018-05-21 09:03:04 GMT 43.638859 7.296949 2,950 138 208 2752
2018-05-21 09:02:57 GMT 43.644215 7.290410 2,600 138 205 2816
2018-05-21 09:02:54 GMT 43.646622 7.287449 2,425 138 204 2368
2018-05-21 09:02:46 GMT 43.653946 7.278570 2,100 138 194 1408
2018-05-21 09:02:42 GMT 43.654408 7.278050 2,100 138 192 1472
2018-05-21 09:02:32 GMT 43.661819 7.269117 1,775 138 179 1408
2018-05-21 09:02:29 GMT 43.663486 7.267129 1,775 138 179 1408
2018-05-21 09:02:20 GMT 43.668640 7.260494 1,575 131 168 1344
2018-05-21 09:02:09 GMT 43.672749 7.250780 1,350 98 155 1408
2018-05-21 09:01:56 GMT 43.671799 7.238713 925 62 156 2560
2018-05-21 09:01:45 GMT 43.666698 7.230050 500 44 159 2048
2018-05-21 09:01:35 GMT 43.661362 7.222617 150 45 161 1600
2018-05-21 09:01:24 GMT 43.656006 7.215271 0 45 145
2018-05-21 09:01:11 GMT 43.650623 7.207849 0 45 90
2018-05-21 09:01:05 GMT 43.649010 7.205625 0 45 64
2018-05-21 09:00:52 GMT 43.647274 7.203247 0 45 11
2018-05-21 09:00:39 GMT 43.646999 7.202895 0 59 6
2018-05-21 09:00:15 GMT 43.647263 7.202081 0 171 6
2018-05-21 09:00:06 GMT 43.647484 7.201881 0 171 6
2018-05-21 08:59:54 GMT 43.647705 7.201849 0 202 2
2018-05-21 08:59:49 GMT 43.647766 7.201873 0 202 2
2018-05-21 08:59:40 GMT 43.647789 7.201889 0 205 0
2018-05-21 08:59:27 GMT 43.647797 7.201881 0 205 0
2018-05-21 08:59:19 GMT 43.647800 7.201889 0 205 1
2018-05-21 08:59:09 GMT 43.647926 7.201953 0 216 3
2018-05-21 08:59:02 GMT 43.648052 7.202094 0 225 8
2018-05-21 08:58:46 GMT 43.648567 7.202800 0 225 12
2018-05-21 08:58:42 GMT 43.648693 7.202977 0 225 11
2018-05-21 08:58:30 GMT 43.649227 7.203712 0 225 18
2018-05-21 08:58:22 GMT 43.649632 7.204253 0 225 18
2018-05-21 08:58:19 GMT 43.649780 7.204460 0 225 18
2018-05-21 08:58:02 GMT 43.650959 7.205115 0 165 15
2018-05-21 08:57:54 GMT 43.651405 7.204844 0 140 15
2018-05-21 08:57:39 GMT 43.652126 7.203869 0 135 14
2018-05-21 08:57:16 GMT 43.653126 7.202960 0 191 9
2018-05-21 08:57:11 GMT 43.653385 7.203087 0 216 6
2018-05-21 08:57:07 GMT 43.653408 7.203108 0 219 6
2018-05-21 08:56:38 GMT 43.653557 7.203279 0 225 0
2018-05-21 08:56:30 GMT 43.653545 7.203271 0 225 0
2018-05-21 08:56:23 GMT 43.653545 7.203279 0 225 0
2018-05-21 08:56:13 GMT 43.653557 7.203263 0 225 0
2018-05-21 08:56:01 GMT 43.653568 7.203295 0 225 2
2018-05-21 08:55:50 GMT 43.653683 7.203454 0 225 5
2018-05-21 08:55:34 GMT 43.654221 7.204189 0 225 18
2018-05-21 08:55:23 GMT 43.654644 7.204764 0 225 15
2018-05-21 08:55:15 GMT 43.655148 7.205466 0 225 18
2018-05-21 08:55:12 GMT 43.655197 7.205527 0 225 17
2018-05-21 08:55:02 GMT 43.655827 7.206394 0 225 16
2018-05-21 08:54:49 GMT 43.656384 7.207159 0 225 14
2018-05-21 08:54:39 GMT 43.656944 7.207930 0 225 12
2018-05-21 08:54:28 GMT 43.657261 7.208339 0 225 11
2018-05-21 08:54:25 GMT 43.657375 7.208486 0 219 11
2018-05-21 08:53:50 GMT 43.658691 7.208127 0 87 9
2018-05-21 08:53:39 GMT 43.658558 7.207670 0 45 7
2018-05-21 08:53:33 GMT 43.658424 7.207489 0 45 6
2018-05-21 08:53:29 GMT 43.658363 7.207414 0 47 5
2018-05-21 08:53:22 GMT 43.658295 7.207303 0 47 4
2018-05-21 08:53:12 GMT 43.658226 7.207211 0 47 2
2018-05-21 08:53:06 GMT 43.658226 7.207162 0 47 0
2018-05-21 08:52:46 GMT 43.658203 7.207175 0 47 0
2018-05-21 08:52:43 GMT 43.658192 7.207175 0 47 0
2018-05-21 08:52:36 GMT 43.658203 7.207191 0 47 0
2018-05-21 08:52:26 GMT 43.658203 7.207178 0 47 0
2018-05-21 08:52:01 GMT 43.658203 7.207191 0 47 0
2018-05-21 08:51:52 GMT 43.658203 7.207178 0 47 0
2018-05-21 08:51:42 GMT 43.658203 7.207191 0 47 0
2018-05-21 08:51:33 GMT 43.658192 7.207195 0 47 0
2018-05-21 08:51:17 GMT 43.658203 7.207195 0 47 0
2018-05-21 08:51:07 GMT 43.658203 7.207191 0 47 0
2018-05-21 08:50:54 GMT 43.658203 7.207178 0 47 0
2018-05-21 08:50:37 GMT 43.658215 7.207191 0 47 0
2018-05-21 08:50:32 GMT 43.658215 7.207178 0 47 0
2018-05-21 08:50:27 GMT 43.658203 7.207175 0 47 0
2018-05-21 08:50:22 GMT 43.658203 7.207178 0 47 0
2018-05-21 08:50:09 GMT 43.658226 7.207159 0 47 0
2018-05-21 08:49:58 GMT 43.658215 7.207178 0 47 0
2018-05-21 08:49:47 GMT 43.658215 7.207162 0 47 0
2018-05-21 08:49:39 GMT 43.658203 7.207175 0 47 0
2018-05-21 08:49:35 GMT 43.658203 7.207178 0 47 0
2018-05-21 08:49:30 GMT 43.658215 7.207191 0 47 1
2018-05-21 08:49:26 GMT 43.658260 7.207211 0 42 3
2018-05-21 08:49:19 GMT 43.658363 7.207244 0 22 4
2018-05-21 08:49:15 GMT 43.658424 7.207244 0 16 3
2018-05-21 08:49:09 GMT 43.658493 7.207211 0 2 4
2018-05-21 08:49:04 GMT 43.658569 7.207175 0 345 4

Making use of Plane Finder data

You are free to use the raw flight data, aircraft information and images provided in this report for your own purposes provided the data is correctly attributed to Plane Finder. We ask that you please credit Plane Finder and link to planefinder.net in close proximity to the content.

Optionally one of the following logos (no smaller then 150x24px) can be used and must link to planefinder.net

Embedding the Plane Finder map

You are welcome to embed the Plane Finder playback map on your website to offer visitors a more interactive experience. We suggest using the following HTML code:

<iframe src="//planefinder.net/data/report/U22122-OE-LQI-7700-squawk-2018-05-21/map" width="800" height="600" seamless="seamless"></iframe>

Where our data comes from

Plane Finder has a global network of data feeds and antenna radars that receive data broadcast directly from aircraft. The primary technologies used are ADS-B and MLAT. We also show feeds from the FAA and a FLARM glider feed.

Click here to find out more about the Plane Finder network.

How we collect our data